<?xml version="1.0" encoding="UTF-8" standalone="no" ?>
<gpx xmlns="http://www.topografix.com/GPX/1/1" xmlns:xsi="http://www.w3.org/2001/XMLSchema-instance" xsi:schemaLocation="http://www.topografix.com/GPX/1/1 http://www.topografix.com/GPX/1/1/gpx.xsd" version="1.1" creator="VisuGPX - https://www.visugpx.com">
  <metadata>
    <name>Minerve</name>
    <desc><![CDATA[Rando minerve : boucle   A/R sur GR]]></desc>
  </metadata>
  <trk>
    <name><![CDATA[ACTIVE LOG132749]]></name>
    <trkseg>
      <trkpt lat="43.35566" lon="2.74251">
        <ele>215.18</ele>
        <time>2011-03-20T12:27:47Z</time>
      </trkpt>
      <trkpt lat="43.35566" lon="2.74251">
        <ele>215.599</ele>
        <time>2011-03-20T12:28:00Z</time>
      </trkpt>
      <trkpt lat="43.35565" lon="2.74253">
        <ele>216.179</ele>
        <time>2011-03-20T12:32:48Z</time>
      </trkpt>
      <trkpt lat="43.35565" lon="2.74255">
        <ele>215.963</ele>
        <time>2011-03-20T12:33:07Z</time>
      </trkpt>
      <trkpt lat="43.35575" lon="2.74291">
        <ele>216.18</ele>
        <time>2011-03-20T12:33:18Z</time>
      </trkpt>
      <trkpt lat="43.35586" lon="2.74327">
        <ele>216.189</ele>
        <time>2011-03-20T12:33:29Z</time>
      </trkpt>
      <trkpt lat="43.35596" lon="2.74355">
        <ele>215.471</ele>
        <time>2011-03-20T12:33:38Z</time>
      </trkpt>
      <trkpt lat="43.35603" lon="2.74359">
        <ele>215.569</ele>
        <time>2011-03-20T12:33:48Z</time>
      </trkpt>
      <trkpt lat="43.35603" lon="2.74359">
        <ele>215.471</ele>
        <time>2011-03-20T12:33:49Z</time>
      </trkpt>
      <trkpt lat="43.35598" lon="2.74389">
        <ele>214.408</ele>
        <time>2011-03-20T12:33:58Z</time>
      </trkpt>
      <trkpt lat="43.35598" lon="2.74409">
        <ele>214.116</ele>
        <time>2011-03-20T12:34:03Z</time>
      </trkpt>
      <trkpt lat="43.35603" lon="2.74414">
        <ele>213.467</ele>
        <time>2011-03-20T12:34:06Z</time>
      </trkpt>
      <trkpt lat="43.35631" lon="2.74397">
        <ele>211.194</ele>
        <time>2011-03-20T12:34:17Z</time>
      </trkpt>
      <trkpt lat="43.3565" lon="2.74394">
        <ele>210.317</ele>
        <time>2011-03-20T12:34:24Z</time>
      </trkpt>
      <trkpt lat="43.3565" lon="2.74397">
        <ele>210.194</ele>
        <time>2011-03-20T12:34:33Z</time>
      </trkpt>
      <trkpt lat="43.35651" lon="2.74398">
        <ele>210.408</ele>
        <time>2011-03-20T12:35:05Z</time>
      </trkpt>
      <trkpt lat="43.35651" lon="2.74398">
        <ele>210.227</ele>
        <time>2011-03-20T12:35:07Z</time>
      </trkpt>
      <trkpt lat="43.35662" lon="2.74381">
        <ele>211.716</ele>
        <time>2011-03-20T12:35:21Z</time>
      </trkpt>
      <trkpt lat="43.35675" lon="2.74363">
        <ele>213.556</ele>
        <time>2011-03-20T12:35:37Z</time>
      </trkpt>
      <trkpt lat="43.35684" lon="2.74343">
        <ele>216.092</ele>
        <time>2011-03-20T12:35:49Z</time>
      </trkpt>
      <trkpt lat="43.357" lon="2.74327">
        <ele>218.366</ele>
        <time>2011-03-20T12:36:00Z</time>
      </trkpt>
      <trkpt lat="43.35712" lon="2.74316">
        <ele>219.688</ele>
        <time>2011-03-20T12:36:09Z</time>
      </trkpt>
      <trkpt lat="43.35717" lon="2.74296">
        <ele>221.878</ele>
        <time>2011-03-20T12:36:18Z</time>
      </trkpt>
      <trkpt lat="43.35719" lon="2.74292">
        <ele>221.902</ele>
        <time>2011-03-20T12:36:19Z</time>
      </trkpt>
      <trkpt lat="43.35723" lon="2.74287">
        <ele>222.47</ele>
        <time>2011-03-20T12:36:21Z</time>
      </trkpt>
      <trkpt lat="43.35733" lon="2.74267">
        <ele>223.682</ele>
        <time>2011-03-20T12:36:28Z</time>
      </trkpt>
      <trkpt lat="43.35741" lon="2.74256">
        <ele>224.581</ele>
        <time>2011-03-20T12:36:37Z</time>
      </trkpt>
      <trkpt lat="43.35743" lon="2.74254">
        <ele>224.069</ele>
        <time>2011-03-20T12:36:51Z</time>
      </trkpt>
      <trkpt lat="43.35744" lon="2.74254">
        <ele>222.651</ele>
        <time>2011-03-20T12:36:55Z</time>
      </trkpt>
      <trkpt lat="43.35746" lon="2.74256">
        <ele>222.017</ele>
        <time>2011-03-20T12:36:57Z</time>
      </trkpt>
      <trkpt lat="43.35747" lon="2.74256">
        <ele>221.282</ele>
        <time>2011-03-20T12:36:59Z</time>
      </trkpt>
      <trkpt lat="43.35753" lon="2.74257">
        <ele>220.698</ele>
        <time>2011-03-20T12:37:03Z</time>
      </trkpt>
      <trkpt lat="43.35756" lon="2.74256">
        <ele>220.019</ele>
        <time>2011-03-20T12:37:07Z</time>
      </trkpt>
      <trkpt lat="43.35764" lon="2.74254">
        <ele>219.532</ele>
        <time>2011-03-20T12:37:15Z</time>
      </trkpt>
      <trkpt lat="43.35771" lon="2.74254">
        <ele>218.298</ele>
        <time>2011-03-20T12:37:21Z</time>
      </trkpt>
      <trkpt lat="43.35781" lon="2.74248">
        <ele>218.484</ele>
        <time>2011-03-20T12:37:31Z</time>
      </trkpt>
      <trkpt lat="43.358" lon="2.74235">
        <ele>219.591</ele>
        <time>2011-03-20T12:37:41Z</time>
      </trkpt>
      <trkpt lat="43.35807" lon="2.7423">
        <ele>221.159</ele>
        <time>2011-03-20T12:37:44Z</time>
      </trkpt>
      <trkpt lat="43.35809" lon="2.74228">
        <ele>221.884</ele>
        <time>2011-03-20T12:37:45Z</time>
      </trkpt>
      <trkpt lat="43.35815" lon="2.74219">
        <ele>223.294</ele>
        <time>2011-03-20T12:37:49Z</time>
      </trkpt>
      <trkpt lat="43.35821" lon="2.7421">
        <ele>224.053</ele>
        <time>2011-03-20T12:37:52Z</time>
      </trkpt>
      <trkpt lat="43.35833" lon="2.74193">
        <ele>225.883</ele>
        <time>2011-03-20T12:37:59Z</time>
      </trkpt>
      <trkpt lat="43.35836" lon="2.74195">
        <ele>226.214</ele>
        <time>2011-03-20T12:38:01Z</time>
      </trkpt>
      <trkpt lat="43.35848" lon="2.74186">
        <ele>226.981</ele>
        <time>2011-03-20T12:38:07Z</time>
      </trkpt>
      <trkpt lat="43.35854" lon="2.74191">
        <ele>227.939</ele>
        <time>2011-03-20T12:38:14Z</time>
      </trkpt>
      <trkpt lat="43.35859" lon="2.74187">
        <ele>228.025</ele>
        <time>2011-03-20T12:38:17Z</time>
      </trkpt>
      <trkpt lat="43.35869" lon="2.74168">
        <ele>228.505</ele>
        <time>2011-03-20T12:38:26Z</time>
      </trkpt>
      <trkpt lat="43.3587" lon="2.7416">
        <ele>228.744</ele>
        <time>2011-03-20T12:38:29Z</time>
      </trkpt>
      <trkpt lat="43.35878" lon="2.74145">
        <ele>229.11</ele>
        <time>2011-03-20T12:38:33Z</time>
      </trkpt>
      <trkpt lat="43.35884" lon="2.74127">
        <ele>230.93</ele>
        <time>2011-03-20T12:38:41Z</time>
      </trkpt>
      <trkpt lat="43.35885" lon="2.74124">
        <ele>231.072</ele>
        <time>2011-03-20T12:38:42Z</time>
      </trkpt>
      <trkpt lat="43.35888" lon="2.74118">
        <ele>232.137</ele>
        <time>2011-03-20T12:38:45Z</time>
      </trkpt>
      <trkpt lat="43.35893" lon="2.74109">
        <ele>233.131</ele>
        <time>2011-03-20T12:38:49Z</time>
      </trkpt>
      <trkpt lat="43.35895" lon="2.74102">
        <ele>234.358</ele>
        <time>2011-03-20T12:38:52Z</time>
      </trkpt>
      <trkpt lat="43.359" lon="2.74096">
        <ele>235.483</ele>
        <time>2011-03-20T12:38:55Z</time>
      </trkpt>
      <trkpt lat="43.35921" lon="2.74076">
        <ele>238.974</ele>
        <time>2011-03-20T12:39:06Z</time>
      </trkpt>
      <trkpt lat="43.35938" lon="2.74081">
        <ele>241.062</ele>
        <time>2011-03-20T12:39:14Z</time>
      </trkpt>
      <trkpt lat="43.35945" lon="2.74084">
        <ele>241.651</ele>
        <time>2011-03-20T12:39:17Z</time>
      </trkpt>
      <trkpt lat="43.35957" lon="2.74089">
        <ele>242.847</ele>
        <time>2011-03-20T12:39:22Z</time>
      </trkpt>
      <trkpt lat="43.35967" lon="2.74094">
        <ele>244.405</ele>
        <time>2011-03-20T12:39:28Z</time>
      </trkpt>
      <trkpt lat="43.35972" lon="2.7409">
        <ele>245.996</ele>
        <time>2011-03-20T12:39:32Z</time>
      </trkpt>
      <trkpt lat="43.35988" lon="2.74106">
        <ele>247.238</ele>
        <time>2011-03-20T12:39:40Z</time>
      </trkpt>
      <trkpt lat="43.36002" lon="2.74121">
        <ele>249.612</ele>
        <time>2011-03-20T12:39:48Z</time>
      </trkpt>
      <trkpt lat="43.36006" lon="2.74117">
        <ele>250.268</ele>
        <time>2011-03-20T12:39:53Z</time>
      </trkpt>
      <trkpt lat="43.36014" lon="2.74107">
        <ele>251.145</ele>
        <time>2011-03-20T12:40:02Z</time>
      </trkpt>
      <trkpt lat="43.36016" lon="2.74106">
        <ele>250.303</ele>
        <time>2011-03-20T12:40:03Z</time>
      </trkpt>
      <trkpt lat="43.3602" lon="2.74105">
        <ele>249.968</ele>
        <time>2011-03-20T12:40:05Z</time>
      </trkpt>
      <trkpt lat="43.36033" lon="2.74096">
        <ele>247.891</ele>
        <time>2011-03-20T12:40:13Z</time>
      </trkpt>
      <trkpt lat="43.36039" lon="2.7409">
        <ele>248.765</ele>
        <time>2011-03-20T12:40:21Z</time>
      </trkpt>
      <trkpt lat="43.36039" lon="2.7409">
        <ele>248.62</ele>
        <time>2011-03-20T12:40:22Z</time>
      </trkpt>
      <trkpt lat="43.36049" lon="2.74096">
        <ele>246.702</ele>
        <time>2011-03-20T12:40:28Z</time>
      </trkpt>
      <trkpt lat="43.3606" lon="2.74099">
        <ele>245.368</ele>
        <time>2011-03-20T12:40:33Z</time>
      </trkpt>
      <trkpt lat="43.36066" lon="2.74103">
        <ele>244.118</ele>
        <time>2011-03-20T12:40:36Z</time>
      </trkpt>
      <trkpt lat="43.36068" lon="2.74105">
        <ele>244.041</ele>
        <time>2011-03-20T12:40:37Z</time>
      </trkpt>
      <trkpt lat="43.36087" lon="2.74114">
        <ele>242.136</ele>
        <time>2011-03-20T12:40:45Z</time>
      </trkpt>
      <trkpt lat="43.36091" lon="2.74117">
        <ele>241.464</ele>
        <time>2011-03-20T12:40:47Z</time>
      </trkpt>
      <trkpt lat="43.36098" lon="2.74122">
        <ele>240.975</ele>
        <time>2011-03-20T12:40:50Z</time>
      </trkpt>
      <trkpt lat="43.36121" lon="2.74114">
        <ele>240.564</ele>
        <time>2011-03-20T12:40:58Z</time>
      </trkpt>
      <trkpt lat="43.3613" lon="2.74101">
        <ele>240.979</ele>
        <time>2011-03-20T12:41:03Z</time>
      </trkpt>
      <trkpt lat="43.36138" lon="2.74078">
        <ele>243.2</ele>
        <time>2011-03-20T12:41:16Z</time>
      </trkpt>
      <trkpt lat="43.36135" lon="2.74071">
        <ele>242.858</ele>
        <time>2011-03-20T12:41:38Z</time>
      </trkpt>
      <trkpt lat="43.36133" lon="2.74067">
        <ele>243.119</ele>
        <time>2011-03-20T12:41:44Z</time>
      </trkpt>
      <trkpt lat="43.36164" lon="2.74063">
        <ele>245.494</ele>
        <time>2011-03-20T12:41:55Z</time>
      </trkpt>
      <trkpt lat="43.36168" lon="2.74063">
        <ele>246.065</ele>
        <time>2011-03-20T12:41:57Z</time>
      </trkpt>
      <trkpt lat="43.36173" lon="2.74064">
        <ele>246.926</ele>
        <time>2011-03-20T12:41:59Z</time>
      </trkpt>
      <trkpt lat="43.36189" lon="2.74066">
        <ele>249.356</ele>
        <time>2011-03-20T12:42:06Z</time>
      </trkpt>
      <trkpt lat="43.36194" lon="2.74067">
        <ele>250.6</ele>
        <time>2011-03-20T12:42:09Z</time>
      </trkpt>
      <trkpt lat="43.36204" lon="2.74069">
        <ele>252.658</ele>
        <time>2011-03-20T12:42:18Z</time>
      </trkpt>
      <trkpt lat="43.36206" lon="2.74068">
        <ele>252.995</ele>
        <time>2011-03-20T12:42:20Z</time>
      </trkpt>
      <trkpt lat="43.36212" lon="2.74063">
        <ele>253.612</ele>
        <time>2011-03-20T12:42:24Z</time>
      </trkpt>
      <trkpt lat="43.3622" lon="2.74058">
        <ele>255.504</ele>
        <time>2011-03-20T12:42:28Z</time>
      </trkpt>
      <trkpt lat="43.36234" lon="2.74052">
        <ele>257.239</ele>
        <time>2011-03-20T12:42:36Z</time>
      </trkpt>
      <trkpt lat="43.36251" lon="2.74043">
        <ele>258.577</ele>
        <time>2011-03-20T12:42:45Z</time>
      </trkpt>
      <trkpt lat="43.36261" lon="2.74036">
        <ele>258.776</ele>
        <time>2011-03-20T12:42:49Z</time>
      </trkpt>
      <trkpt lat="43.36266" lon="2.74036">
        <ele>258.63</ele>
        <time>2011-03-20T12:42:51Z</time>
      </trkpt>
      <trkpt lat="43.36278" lon="2.74035">
        <ele>256.081</ele>
        <time>2011-03-20T12:42:56Z</time>
      </trkpt>
      <trkpt lat="43.36288" lon="2.74033">
        <ele>255.747</ele>
        <time>2011-03-20T12:42:59Z</time>
      </trkpt>
      <trkpt lat="43.36296" lon="2.74032">
        <ele>254.487</ele>
        <time>2011-03-20T12:43:04Z</time>
      </trkpt>
      <trkpt lat="43.36312" lon="2.74033">
        <ele>253.169</ele>
        <time>2011-03-20T12:43:09Z</time>
      </trkpt>
      <trkpt lat="43.36331" lon="2.74031">
        <ele>250.564</ele>
        <time>2011-03-20T12:43:18Z</time>
      </trkpt>
      <trkpt lat="43.36334" lon="2.74032">
        <ele>250.149</ele>
        <time>2011-03-20T12:43:19Z</time>
      </trkpt>
      <trkpt lat="43.36355" lon="2.74026">
        <ele>246.646</ele>
        <time>2011-03-20T12:43:29Z</time>
      </trkpt>
      <trkpt lat="43.36356" lon="2.74024">
        <ele>246.707</ele>
        <time>2011-03-20T12:43:30Z</time>
      </trkpt>
      <trkpt lat="43.36363" lon="2.74015">
        <ele>244.288</ele>
        <time>2011-03-20T12:43:34Z</time>
      </trkpt>
      <trkpt lat="43.36365" lon="2.74011">
        <ele>243.097</ele>
        <time>2011-03-20T12:43:36Z</time>
      </trkpt>
      <trkpt lat="43.36372" lon="2.74004">
        <ele>241.131</ele>
        <time>2011-03-20T12:43:40Z</time>
      </trkpt>
      <trkpt lat="43.36375" lon="2.73991">
        <ele>240.027</ele>
        <time>2011-03-20T12:43:44Z</time>
      </trkpt>
      <trkpt lat="43.3638" lon="2.73974">
        <ele>238.229</ele>
        <time>2011-03-20T12:43:49Z</time>
      </trkpt>
      <trkpt lat="43.36386" lon="2.73947">
        <ele>234.304</ele>
        <time>2011-03-20T12:43:58Z</time>
      </trkpt>
      <trkpt lat="43.36395" lon="2.73931">
        <ele>231.098</ele>
        <time>2011-03-20T12:44:04Z</time>
      </trkpt>
      <trkpt lat="43.364" lon="2.73926">
        <ele>229.888</ele>
        <time>2011-03-20T12:44:06Z</time>
      </trkpt>
      <trkpt lat="43.36403" lon="2.73911">
        <ele>228.108</ele>
        <time>2011-03-20T12:44:12Z</time>
      </trkpt>
      <trkpt lat="43.36404" lon="2.73905">
        <ele>226.584</ele>
        <time>2011-03-20T12:44:15Z</time>
      </trkpt>
      <trkpt lat="43.36405" lon="2.73902">
        <ele>226.069</ele>
        <time>2011-03-20T12:44:16Z</time>
      </trkpt>
      <trkpt lat="43.36404" lon="2.73898">
        <ele>226.019</ele>
        <time>2011-03-20T12:44:18Z</time>
      </trkpt>
      <trkpt lat="43.36407" lon="2.73879">
        <ele>222.056</ele>
        <time>2011-03-20T12:44:25Z</time>
      </trkpt>
      <trkpt lat="43.3641" lon="2.73872">
        <ele>219.571</ele>
        <time>2011-03-20T12:44:32Z</time>
      </trkpt>
      <trkpt lat="43.36416" lon="2.73869">
        <ele>216.913</ele>
        <time>2011-03-20T12:44:36Z</time>
      </trkpt>
      <trkpt lat="43.3642" lon="2.73863">
        <ele>216.135</ele>
        <time>2011-03-20T12:44:38Z</time>
      </trkpt>
      <trkpt lat="43.36419" lon="2.73855">
        <ele>214.893</ele>
        <time>2011-03-20T12:44:41Z</time>
      </trkpt>
      <trkpt lat="43.36418" lon="2.7384">
        <ele>213.813</ele>
        <time>2011-03-20T12:44:46Z</time>
      </trkpt>
      <trkpt lat="43.3642" lon="2.73836">
        <ele>210.382</ele>
        <time>2011-03-20T12:44:52Z</time>
      </trkpt>
      <trkpt lat="43.3643" lon="2.73838">
        <ele>206.592</ele>
        <time>2011-03-20T12:44:58Z</time>
      </trkpt>
      <trkpt lat="43.3643" lon="2.73838">
        <ele>206.424</ele>
        <time>2011-03-20T12:44:59Z</time>
      </trkpt>
      <trkpt lat="43.36434" lon="2.73844">
        <ele>203.161</ele>
        <time>2011-03-20T12:45:05Z</time>
      </trkpt>
      <trkpt lat="43.36436" lon="2.73848">
        <ele>201.858</ele>
        <time>2011-03-20T12:45:08Z</time>
      </trkpt>
      <trkpt lat="43.36441" lon="2.73858">
        <ele>199.051</ele>
        <time>2011-03-20T12:45:13Z</time>
      </trkpt>
      <trkpt lat="43.36453" lon="2.73874">
        <ele>198.243</ele>
        <time>2011-03-20T12:45:21Z</time>
      </trkpt>
      <trkpt lat="43.36455" lon="2.73878">
        <ele>198.235</ele>
        <time>2011-03-20T12:45:23Z</time>
      </trkpt>
      <trkpt lat="43.36457" lon="2.73885">
        <ele>197.923</ele>
        <time>2011-03-20T12:45:26Z</time>
      </trkpt>
      <trkpt lat="43.36465" lon="2.73899">
        <ele>198.382</ele>
        <time>2011-03-20T12:45:33Z</time>
      </trkpt>
      <trkpt lat="43.36473" lon="2.7391">
        <ele>198.283</ele>
        <time>2011-03-20T12:45:37Z</time>
      </trkpt>
      <trkpt lat="43.36476" lon="2.73923">
        <ele>198.281</ele>
        <time>2011-03-20T12:45:40Z</time>
      </trkpt>
      <trkpt lat="43.36477" lon="2.73933">
        <ele>198.154</ele>
        <time>2011-03-20T12:45:43Z</time>
      </trkpt>
      <trkpt lat="43.36491" lon="2.73974">
        <ele>198.595</ele>
        <time>2011-03-20T12:45:54Z</time>
      </trkpt>
      <trkpt lat="43.36496" lon="2.73979">
        <ele>198.085</ele>
        <time>2011-03-20T12:45:56Z</time>
      </trkpt>
      <trkpt lat="43.36525" lon="2.73983">
        <ele>196.983</ele>
        <time>2011-03-20T12:46:06Z</time>
      </trkpt>
      <trkpt lat="43.36542" lon="2.74006">
        <ele>196.438</ele>
        <time>2011-03-20T12:46:15Z</time>
      </trkpt>
      <trkpt lat="43.36553" lon="2.74045">
        <ele>194.344</ele>
        <time>2011-03-20T12:46:26Z</time>
      </trkpt>
      <trkpt lat="43.36555" lon="2.74053">
        <ele>193.721</ele>
        <time>2011-03-20T12:46:28Z</time>
      </trkpt>
      <trkpt lat="43.3657" lon="2.74072">
        <ele>194.305</ele>
        <time>2011-03-20T12:46:37Z</time>
      </trkpt>
      <trkpt lat="43.36583" lon="2.74077">
        <ele>193.122</ele>
        <time>2011-03-20T12:46:42Z</time>
      </trkpt>
      <trkpt lat="43.36594" lon="2.74082">
        <ele>191.866</ele>
        <time>2011-03-20T12:46:47Z</time>
      </trkpt>
      <trkpt lat="43.36604" lon="2.74078">
        <ele>191.524</ele>
        <time>2011-03-20T12:46:51Z</time>
      </trkpt>
      <trkpt lat="43.36617" lon="2.74072">
        <ele>190.35</ele>
        <time>2011-03-20T12:46:56Z</time>
      </trkpt>
      <trkpt lat="43.3663" lon="2.74068">
        <ele>189.647</ele>
        <time>2011-03-20T12:47:01Z</time>
      </trkpt>
      <trkpt lat="43.3665" lon="2.74071">
        <ele>189.448</ele>
        <time>2011-03-20T12:47:07Z</time>
      </trkpt>
      <trkpt lat="43.36675" lon="2.74063">
        <ele>188.217</ele>
        <time>2011-03-20T12:47:15Z</time>
      </trkpt>
      <trkpt lat="43.36697" lon="2.7406">
        <ele>187.669</ele>
        <time>2011-03-20T12:47:22Z</time>
      </trkpt>
      <trkpt lat="43.36709" lon="2.74054">
        <ele>187.177</ele>
        <time>2011-03-20T12:47:27Z</time>
      </trkpt>
      <trkpt lat="43.36722" lon="2.74043">
        <ele>187.407</ele>
        <time>2011-03-20T12:47:33Z</time>
      </trkpt>
      <trkpt lat="43.36737" lon="2.74035">
        <ele>187.233</ele>
        <time>2011-03-20T12:47:38Z</time>
      </trkpt>
      <trkpt lat="43.36749" lon="2.74022">
        <ele>187.495</ele>
        <time>2011-03-20T12:47:44Z</time>
      </trkpt>
      <trkpt lat="43.36756" lon="2.74012">
        <ele>187.483</ele>
        <time>2011-03-20T12:47:47Z</time>
      </trkpt>
      <trkpt lat="43.36765" lon="2.74002">
        <ele>187.337</ele>
        <time>2011-03-20T12:47:51Z</time>
      </trkpt>
      <trkpt lat="43.36774" lon="2.73991">
        <ele>188.846</ele>
        <time>2011-03-20T12:47:58Z</time>
      </trkpt>
      <trkpt lat="43.36782" lon="2.7398">
        <ele>187.447</ele>
        <time>2011-03-20T12:48:06Z</time>
      </trkpt>
      <trkpt lat="43.36788" lon="2.7397">
        <ele>187.316</ele>
        <time>2011-03-20T12:48:11Z</time>
      </trkpt>
      <trkpt lat="43.36784" lon="2.73956">
        <ele>187.246</ele>
        <time>2011-03-20T12:48:18Z</time>
      </trkpt>
      <trkpt lat="43.3679" lon="2.73947">
        <ele>188.12</ele>
        <time>2011-03-20T12:48:22Z</time>
      </trkpt>
      <trkpt lat="43.36792" lon="2.73942">
        <ele>187.543</ele>
        <time>2011-03-20T12:48:25Z</time>
      </trkpt>
      <trkpt lat="43.36806" lon="2.7392">
        <ele>188.814</ele>
        <time>2011-03-20T12:48:34Z</time>
      </trkpt>
      <trkpt lat="43.36813" lon="2.73911">
        <ele>188.914</ele>
        <time>2011-03-20T12:48:37Z</time>
      </trkpt>
      <trkpt lat="43.36818" lon="2.73903">
        <ele>188.77</ele>
        <time>2011-03-20T12:48:41Z</time>
      </trkpt>
      <trkpt lat="43.36821" lon="2.739">
        <ele>188.832</ele>
        <time>2011-03-20T12:48:43Z</time>
      </trkpt>
      <trkpt lat="43.36846" lon="2.73891">
        <ele>191.404</ele>
        <time>2011-03-20T12:48:53Z</time>
      </trkpt>
      <trkpt lat="43.36852" lon="2.73892">
        <ele>190.198</ele>
        <time>2011-03-20T12:48:59Z</time>
      </trkpt>
      <trkpt lat="43.36856" lon="2.73895">
        <ele>190.799</ele>
        <time>2011-03-20T12:49:01Z</time>
      </trkpt>
      <trkpt lat="43.36876" lon="2.73895">
        <ele>190.301</ele>
        <time>2011-03-20T12:49:06Z</time>
      </trkpt>
      <trkpt lat="43.36885" lon="2.73895">
        <ele>189.868</ele>
        <time>2011-03-20T12:49:08Z</time>
      </trkpt>
      <trkpt lat="43.36892" lon="2.73901">
        <ele>192.341</ele>
        <time>2011-03-20T12:49:14Z</time>
      </trkpt>
      <trkpt lat="43.36894" lon="2.73899">
        <ele>193.64</ele>
        <time>2011-03-20T12:49:17Z</time>
      </trkpt>
      <trkpt lat="43.36899" lon="2.73902">
        <ele>196.552</ele>
        <time>2011-03-20T12:49:24Z</time>
      </trkpt>
      <trkpt lat="43.36906" lon="2.73909">
        <ele>197.215</ele>
        <time>2011-03-20T12:49:29Z</time>
      </trkpt>
      <trkpt lat="43.36911" lon="2.73914">
        <ele>199.157</ele>
        <time>2011-03-20T12:49:33Z</time>
      </trkpt>
      <trkpt lat="43.36917" lon="2.73917">
        <ele>200.684</ele>
        <time>2011-03-20T12:49:37Z</time>
      </trkpt>
      <trkpt lat="43.36918" lon="2.73919">
        <ele>201.419</ele>
        <time>2011-03-20T12:49:38Z</time>
      </trkpt>
      <trkpt lat="43.36928" lon="2.73926">
        <ele>201.971</ele>
        <time>2011-03-20T12:49:45Z</time>
      </trkpt>
      <trkpt lat="43.36928" lon="2.7395">
        <ele>201.683</ele>
        <time>2011-03-20T12:49:52Z</time>
      </trkpt>
      <trkpt lat="43.36929" lon="2.73954">
        <ele>202.082</ele>
        <time>2011-03-20T12:49:54Z</time>
      </trkpt>
      <trkpt lat="43.36929" lon="2.73958">
        <ele>202.494</ele>
        <time>2011-03-20T12:50:07Z</time>
      </trkpt>
      <trkpt lat="43.36923" lon="2.73958">
        <ele>201.769</ele>
        <time>2011-03-20T12:50:14Z</time>
      </trkpt>
      <trkpt lat="43.36878" lon="2.73956">
        <ele>202.25</ele>
        <time>2011-03-20T12:50:36Z</time>
      </trkpt>
      <trkpt lat="43.36852" lon="2.73936">
        <ele>200.243</ele>
        <time>2011-03-20T12:50:41Z</time>
      </trkpt>
      <trkpt lat="43.36828" lon="2.73929">
        <ele>199.311</ele>
        <time>2011-03-20T12:50:51Z</time>
      </trkpt>
      <trkpt lat="43.36824" lon="2.73927">
        <ele>199.142</ele>
        <time>2011-03-20T12:50:56Z</time>
      </trkpt>
      <trkpt lat="43.36815" lon="2.73958">
        <ele>198.27</ele>
        <time>2011-03-20T12:51:03Z</time>
      </trkpt>
      <trkpt lat="43.36815" lon="2.73966">
        <ele>198.11</ele>
        <time>2011-03-20T12:51:05Z</time>
      </trkpt>
      <trkpt lat="43.36812" lon="2.73985">
        <ele>197.904</ele>
        <time>2011-03-20T12:51:09Z</time>
      </trkpt>
      <trkpt lat="43.368" lon="2.74003">
        <ele>197.137</ele>
        <time>2011-03-20T12:51:16Z</time>
      </trkpt>
      <trkpt lat="43.36792" lon="2.74019">
        <ele>193.785</ele>
        <time>2011-03-20T12:51:21Z</time>
      </trkpt>
      <trkpt lat="43.36787" lon="2.74038">
        <ele>194.585</ele>
        <time>2011-03-20T12:51:27Z</time>
      </trkpt>
      <trkpt lat="43.36786" lon="2.74039">
        <ele>195.32</ele>
        <time>2011-03-20T12:51:28Z</time>
      </trkpt>
      <trkpt lat="43.36785" lon="2.74046">
        <ele>196.853</ele>
        <time>2011-03-20T12:51:31Z</time>
      </trkpt>
      <trkpt lat="43.36779" lon="2.74055">
        <ele>197.116</ele>
        <time>2011-03-20T12:51:34Z</time>
      </trkpt>
      <trkpt lat="43.3677" lon="2.7406">
        <ele>196.889</ele>
        <time>2011-03-20T12:51:37Z</time>
      </trkpt>
      <trkpt lat="43.36765" lon="2.74075">
        <ele>198.629</ele>
        <time>2011-03-20T12:51:43Z</time>
      </trkpt>
      <trkpt lat="43.3676" lon="2.7408">
        <ele>199.917</ele>
        <time>2011-03-20T12:51:46Z</time>
      </trkpt>
      <trkpt lat="43.36759" lon="2.74082">
        <ele>200.897</ele>
        <time>2011-03-20T12:51:48Z</time>
      </trkpt>
      <trkpt lat="43.36759" lon="2.74082">
        <ele>201.873</ele>
        <time>2011-03-20T12:51:50Z</time>
      </trkpt>
      <trkpt lat="43.36754" lon="2.74086">
        <ele>203.912</ele>
        <time>2011-03-20T12:51:54Z</time>
      </trkpt>
      <trkpt lat="43.36752" lon="2.74087">
        <ele>204.37</ele>
        <time>2011-03-20T12:51:55Z</time>
      </trkpt>
      <trkpt lat="43.36749" lon="2.74088">
        <ele>205.446</ele>
        <time>2011-03-20T12:51:57Z</time>
      </trkpt>
      <trkpt lat="43.36745" lon="2.74092">
        <ele>206.607</ele>
        <time>2011-03-20T12:52:00Z</time>
      </trkpt>
      <trkpt lat="43.36737" lon="2.741">
        <ele>209.56</ele>
        <time>2011-03-20T12:52:06Z</time>
      </trkpt>
      <trkpt lat="43.36735" lon="2.74106">
        <ele>209.626</ele>
        <time>2011-03-20T12:52:08Z</time>
      </trkpt>
      <trkpt lat="43.36726" lon="2.7412">
        <ele>211.326</ele>
        <time>2011-03-20T12:52:14Z</time>
      </trkpt>
      <trkpt lat="43.36712" lon="2.7413">
        <ele>214.917</ele>
        <time>2011-03-20T12:52:21Z</time>
      </trkpt>
      <trkpt lat="43.36709" lon="2.74136">
        <ele>216.65</ele>
        <time>2011-03-20T12:52:25Z</time>
      </trkpt>
      <trkpt lat="43.36697" lon="2.74148">
        <ele>220.277</ele>
        <time>2011-03-20T12:52:33Z</time>
      </trkpt>
      <trkpt lat="43.36681" lon="2.74164">
        <ele>223.678</ele>
        <time>2011-03-20T12:52:42Z</time>
      </trkpt>
      <trkpt lat="43.36679" lon="2.74165">
        <ele>223.533</ele>
        <time>2011-03-20T12:52:43Z</time>
      </trkpt>
      <trkpt lat="43.36675" lon="2.74169">
        <ele>224.169</ele>
        <time>2011-03-20T12:52:45Z</time>
      </trkpt>
      <trkpt lat="43.36672" lon="2.74175">
        <ele>226.149</ele>
        <time>2011-03-20T12:52:49Z</time>
      </trkpt>
      <trkpt lat="43.36663" lon="2.74176">
        <ele>226.293</ele>
        <time>2011-03-20T12:52:52Z</time>
      </trkpt>
      <trkpt lat="43.36648" lon="2.74183">
        <ele>229.09</ele>
        <time>2011-03-20T12:53:01Z</time>
      </trkpt>
      <trkpt lat="43.36643" lon="2.74185">
        <ele>231.146</ele>
        <time>2011-03-20T12:53:06Z</time>
      </trkpt>
      <trkpt lat="43.36639" lon="2.74186">
        <ele>231.333</ele>
        <time>2011-03-20T12:53:09Z</time>
      </trkpt>
      <trkpt lat="43.36636" lon="2.74188">
        <ele>231.895</ele>
        <time>2011-03-20T12:53:13Z</time>
      </trkpt>
      <trkpt lat="43.36611" lon="2.74197">
        <ele>234.909</ele>
        <time>2011-03-20T12:53:31Z</time>
      </trkpt>
      <trkpt lat="43.366" lon="2.74205">
        <ele>237.814</ele>
        <time>2011-03-20T12:53:41Z</time>
      </trkpt>
      <trkpt lat="43.3659" lon="2.74208">
        <ele>240.131</ele>
        <time>2011-03-20T12:53:49Z</time>
      </trkpt>
      <trkpt lat="43.3658" lon="2.74212">
        <ele>241.328</ele>
        <time>2011-03-20T12:53:55Z</time>
      </trkpt>
      <trkpt lat="43.36575" lon="2.74221">
        <ele>243.436</ele>
        <time>2011-03-20T12:53:59Z</time>
      </trkpt>
      <trkpt lat="43.36573" lon="2.74222">
        <ele>243.763</ele>
        <time>2011-03-20T12:54:00Z</time>
      </trkpt>
      <trkpt lat="43.36571" lon="2.74227">
        <ele>246.367</ele>
        <time>2011-03-20T12:54:05Z</time>
      </trkpt>
      <trkpt lat="43.36576" lon="2.74223">
        <ele>247.142</ele>
        <time>2011-03-20T12:54:10Z</time>
      </trkpt>
      <trkpt lat="43.36591" lon="2.74224">
        <ele>248.565</ele>
        <time>2011-03-20T12:54:22Z</time>
      </trkpt>
      <trkpt lat="43.36597" lon="2.74221">
        <ele>248.16</ele>
        <time>2011-03-20T12:54:26Z</time>
      </trkpt>
      <trkpt lat="43.36602" lon="2.74219">
        <ele>248.18</ele>
        <time>2011-03-20T12:54:29Z</time>
      </trkpt>
      <trkpt lat="43.36607" lon="2.74222">
        <ele>248.691</ele>
        <time>2011-03-20T12:54:31Z</time>
      </trkpt>
      <trkpt lat="43.36611" lon="2.74219">
        <ele>249.329</ele>
        <time>2011-03-20T12:54:33Z</time>
      </trkpt>
      <trkpt lat="43.36618" lon="2.74217">
        <ele>249.616</ele>
        <time>2011-03-20T12:54:37Z</time>
      </trkpt>
      <trkpt lat="43.36643" lon="2.74209">
        <ele>250.443</ele>
        <time>2011-03-20T12:54:46Z</time>
      </trkpt>
      <trkpt lat="43.36647" lon="2.7421">
        <ele>251.059</ele>
        <time>2011-03-20T12:54:48Z</time>
      </trkpt>
      <trkpt lat="43.36671" lon="2.74207">
        <ele>253.287</ele>
        <time>2011-03-20T12:54:57Z</time>
      </trkpt>
      <trkpt lat="43.36676" lon="2.74204">
        <ele>253.663</ele>
        <time>2011-03-20T12:55:00Z</time>
      </trkpt>
      <trkpt lat="43.36691" lon="2.74205">
        <ele>255.233</ele>
        <time>2011-03-20T12:55:05Z</time>
      </trkpt>
      <trkpt lat="43.36699" lon="2.74202">
        <ele>256.059</ele>
        <time>2011-03-20T12:55:09Z</time>
      </trkpt>
      <trkpt lat="43.36712" lon="2.74188">
        <ele>254.938</ele>
        <time>2011-03-20T12:55:15Z</time>
      </trkpt>
      <trkpt lat="43.36729" lon="2.74184">
        <ele>255.301</ele>
        <time>2011-03-20T12:55:21Z</time>
      </trkpt>
      <trkpt lat="43.36746" lon="2.74182">
        <ele>256.13</ele>
        <time>2011-03-20T12:55:26Z</time>
      </trkpt>
      <trkpt lat="43.36754" lon="2.74184">
        <ele>258.438</ele>
        <time>2011-03-20T12:55:30Z</time>
      </trkpt>
      <trkpt lat="43.36757" lon="2.74184">
        <ele>259.434</ele>
        <time>2011-03-20T12:55:32Z</time>
      </trkpt>
      <trkpt lat="43.36763" lon="2.74184">
        <ele>260.557</ele>
        <time>2011-03-20T12:55:35Z</time>
      </trkpt>
      <trkpt lat="43.36782" lon="2.74165">
        <ele>260.673</ele>
        <time>2011-03-20T12:55:44Z</time>
      </trkpt>
      <trkpt lat="43.36793" lon="2.74158">
        <ele>263.1</ele>
        <time>2011-03-20T12:55:51Z</time>
      </trkpt>
      <trkpt lat="43.36801" lon="2.74148">
        <ele>262.978</ele>
        <time>2011-03-20T12:55:56Z</time>
      </trkpt>
      <trkpt lat="43.36809" lon="2.74139">
        <ele>262.683</ele>
        <time>2011-03-20T12:56:00Z</time>
      </trkpt>
      <trkpt lat="43.36821" lon="2.74134">
        <ele>264.33</ele>
        <time>2011-03-20T12:56:04Z</time>
      </trkpt>
      <trkpt lat="43.3683" lon="2.74125">
        <ele>266.606</ele>
        <time>2011-03-20T12:56:10Z</time>
      </trkpt>
      <trkpt lat="43.36853" lon="2.74104">
        <ele>268.511</ele>
        <time>2011-03-20T12:56:22Z</time>
      </trkpt>
      <trkpt lat="43.36863" lon="2.74087">
        <ele>268.585</ele>
        <time>2011-03-20T12:56:28Z</time>
      </trkpt>
      <trkpt lat="43.36867" lon="2.74066">
        <ele>267.377</ele>
        <time>2011-03-20T12:56:36Z</time>
      </trkpt>
      <trkpt lat="43.36875" lon="2.74057">
        <ele>269.166</ele>
        <time>2011-03-20T12:56:41Z</time>
      </trkpt>
      <trkpt lat="43.36905" lon="2.74062">
        <ele>270.314</ele>
        <time>2011-03-20T12:56:54Z</time>
      </trkpt>
      <trkpt lat="43.36942" lon="2.74059">
        <ele>267.892</ele>
        <time>2011-03-20T12:57:06Z</time>
      </trkpt>
      <trkpt lat="43.36945" lon="2.74059">
        <ele>268.111</ele>
        <time>2011-03-20T12:57:07Z</time>
      </trkpt>
      <trkpt lat="43.36975" lon="2.74078">
        <ele>267.897</ele>
        <time>2011-03-20T12:57:20Z</time>
      </trkpt>
      <trkpt lat="43.36996" lon="2.74093">
        <ele>264.438</ele>
        <time>2011-03-20T12:57:29Z</time>
      </trkpt>
      <trkpt lat="43.36998" lon="2.74095">
        <ele>264.375</ele>
        <time>2011-03-20T12:57:30Z</time>
      </trkpt>
      <trkpt lat="43.3701" lon="2.74105">
        <ele>262.155</ele>
        <time>2011-03-20T12:57:36Z</time>
      </trkpt>
      <trkpt lat="43.37016" lon="2.74109">
        <ele>260.586</ele>
        <time>2011-03-20T12:57:40Z</time>
      </trkpt>
      <trkpt lat="43.37024" lon="2.74107">
        <ele>260.245</ele>
        <time>2011-03-20T12:57:44Z</time>
      </trkpt>
      <trkpt lat="43.3704" lon="2.74069">
        <ele>259.172</ele>
        <time>2011-03-20T12:57:57Z</time>
      </trkpt>
      <trkpt lat="43.37054" lon="2.74034">
        <ele>259.399</ele>
        <time>2011-03-20T12:58:10Z</time>
      </trkpt>
      <trkpt lat="43.37077" lon="2.74008">
        <ele>259.954</ele>
        <time>2011-03-20T12:58:22Z</time>
      </trkpt>
      <trkpt lat="43.37082" lon="2.74008">
        <ele>260.803</ele>
        <time>2011-03-20T12:58:24Z</time>
      </trkpt>
      <trkpt lat="43.37084" lon="2.74007">
        <ele>260.274</ele>
        <time>2011-03-20T12:58:25Z</time>
      </trkpt>
      <trkpt lat="43.37089" lon="2.74001">
        <ele>258.876</ele>
        <time>2011-03-20T12:58:28Z</time>
      </trkpt>
      <trkpt lat="43.37094" lon="2.74">
        <ele>259.109</ele>
        <time>2011-03-20T12:58:30Z</time>
      </trkpt>
      <trkpt lat="43.37122" lon="2.73982">
        <ele>256.688</ele>
        <time>2011-03-20T12:58:41Z</time>
      </trkpt>
      <trkpt lat="43.37127" lon="2.7398">
        <ele>255.661</ele>
        <time>2011-03-20T12:58:43Z</time>
      </trkpt>
      <trkpt lat="43.37138" lon="2.73976">
        <ele>256.249</ele>
        <time>2011-03-20T12:58:47Z</time>
      </trkpt>
      <trkpt lat="43.37141" lon="2.73976">
        <ele>256.372</ele>
        <time>2011-03-20T12:58:48Z</time>
      </trkpt>
      <trkpt lat="43.37157" lon="2.73963">
        <ele>255.103</ele>
        <time>2011-03-20T12:58:54Z</time>
      </trkpt>
      <trkpt lat="43.37168" lon="2.73954">
        <ele>253.43</ele>
        <time>2011-03-20T12:58:59Z</time>
      </trkpt>
      <trkpt lat="43.37173" lon="2.73949">
        <ele>252.059</ele>
        <time>2011-03-20T12:59:01Z</time>
      </trkpt>
      <trkpt lat="43.3718" lon="2.73946">
        <ele>251.514</ele>
        <time>2011-03-20T12:59:04Z</time>
      </trkpt>
      <trkpt lat="43.37192" lon="2.73941">
        <ele>251.952</ele>
        <time>2011-03-20T12:59:11Z</time>
      </trkpt>
      <trkpt lat="43.37199" lon="2.73936">
        <ele>251.885</ele>
        <time>2011-03-20T12:59:14Z</time>
      </trkpt>
      <trkpt lat="43.37228" lon="2.7392">
        <ele>249.882</ele>
        <time>2011-03-20T12:59:26Z</time>
      </trkpt>
      <trkpt lat="43.3726" lon="2.73926">
        <ele>247</ele>
        <time>2011-03-20T12:59:37Z</time>
      </trkpt>
      <trkpt lat="43.37264" lon="2.73926">
        <ele>246.03</ele>
        <time>2011-03-20T12:59:39Z</time>
      </trkpt>
      <trkpt lat="43.3727" lon="2.73928">
        <ele>243.784</ele>
        <time>2011-03-20T12:59:43Z</time>
      </trkpt>
      <trkpt lat="43.37284" lon="2.73937">
        <ele>239.513</ele>
        <time>2011-03-20T12:59:51Z</time>
      </trkpt>
      <trkpt lat="43.37285" lon="2.73941">
        <ele>238.853</ele>
        <time>2011-03-20T12:59:53Z</time>
      </trkpt>
      <trkpt lat="43.37286" lon="2.7394">
        <ele>238.221</ele>
        <time>2011-03-20T12:59:54Z</time>
      </trkpt>
      <trkpt lat="43.37294" lon="2.73935">
        <ele>236.538</ele>
        <time>2011-03-20T12:59:58Z</time>
      </trkpt>
      <trkpt lat="43.373" lon="2.73929">
        <ele>235.167</ele>
        <time>2011-03-20T13:00:01Z</time>
      </trkpt>
      <trkpt lat="43.37304" lon="2.73918">
        <ele>233.515</ele>
        <time>2011-03-20T13:00:05Z</time>
      </trkpt>
      <trkpt lat="43.37325" lon="2.73916">
        <ele>230.501</ele>
        <time>2011-03-20T13:00:14Z</time>
      </trkpt>
      <trkpt lat="43.37333" lon="2.73912">
        <ele>229.191</ele>
        <time>2011-03-20T13:00:18Z</time>
      </trkpt>
      <trkpt lat="43.3734" lon="2.73903">
        <ele>227.399</ele>
        <time>2011-03-20T13:00:22Z</time>
      </trkpt>
      <trkpt lat="43.37346" lon="2.73886">
        <ele>225.748</ele>
        <time>2011-03-20T13:00:27Z</time>
      </trkpt>
      <trkpt lat="43.37351" lon="2.73882">
        <ele>225.068</ele>
        <time>2011-03-20T13:00:29Z</time>
      </trkpt>
      <trkpt lat="43.37359" lon="2.73877">
        <ele>224.268</ele>
        <time>2011-03-20T13:00:33Z</time>
      </trkpt>
      <trkpt lat="43.37368" lon="2.73854">
        <ele>225.18</ele>
        <time>2011-03-20T13:00:40Z</time>
      </trkpt>
      <trkpt lat="43.37376" lon="2.7382">
        <ele>226.466</ele>
        <time>2011-03-20T13:00:49Z</time>
      </trkpt>
      <trkpt lat="43.37377" lon="2.73817">
        <ele>226.682</ele>
        <time>2011-03-20T13:00:50Z</time>
      </trkpt>
      <trkpt lat="43.37385" lon="2.73781">
        <ele>227.842</ele>
        <time>2011-03-20T13:01:00Z</time>
      </trkpt>
      <trkpt lat="43.37383" lon="2.73773">
        <ele>226.324</ele>
        <time>2011-03-20T13:01:03Z</time>
      </trkpt>
      <trkpt lat="43.37384" lon="2.73759">
        <ele>224.924</ele>
        <time>2011-03-20T13:01:08Z</time>
      </trkpt>
      <trkpt lat="43.37382" lon="2.73752">
        <ele>223.522</ele>
        <time>2011-03-20T13:01:11Z</time>
      </trkpt>
      <trkpt lat="43.37378" lon="2.73747">
        <ele>221.793</ele>
        <time>2011-03-20T13:01:13Z</time>
      </trkpt>
      <trkpt lat="43.37379" lon="2.73741">
        <ele>220.939</ele>
        <time>2011-03-20T13:01:15Z</time>
      </trkpt>
      <trkpt lat="43.37388" lon="2.73732">
        <ele>219.841</ele>
        <time>2011-03-20T13:01:19Z</time>
      </trkpt>
      <trkpt lat="43.37395" lon="2.7372">
        <ele>218.329</ele>
        <time>2011-03-20T13:01:23Z</time>
      </trkpt>
      <trkpt lat="43.37399" lon="2.73716">
        <ele>217.965</ele>
        <time>2011-03-20T13:01:25Z</time>
      </trkpt>
      <trkpt lat="43.37409" lon="2.73717">
        <ele>217.861</ele>
        <time>2011-03-20T13:01:28Z</time>
      </trkpt>
      <trkpt lat="43.37421" lon="2.73727">
        <ele>221.687</ele>
        <time>2011-03-20T13:01:36Z</time>
      </trkpt>
      <trkpt lat="43.37423" lon="2.73727">
        <ele>222.12</ele>
        <time>2011-03-20T13:01:43Z</time>
      </trkpt>
      <trkpt lat="43.37423" lon="2.7372">
        <ele>221.738</ele>
        <time>2011-03-20T13:01:46Z</time>
      </trkpt>
      <trkpt lat="43.37426" lon="2.73711">
        <ele>221.958</ele>
        <time>2011-03-20T13:01:49Z</time>
      </trkpt>
      <trkpt lat="43.3743" lon="2.7371">
        <ele>221.581</ele>
        <time>2011-03-20T13:01:52Z</time>
      </trkpt>
      <trkpt lat="43.37437" lon="2.73712">
        <ele>222.282</ele>
        <time>2011-03-20T13:02:02Z</time>
      </trkpt>
      <trkpt lat="43.37427" lon="2.73695">
        <ele>225.713</ele>
        <time>2011-03-20T13:02:10Z</time>
      </trkpt>
      <trkpt lat="43.37423" lon="2.7369">
        <ele>226.723</ele>
        <time>2011-03-20T13:02:12Z</time>
      </trkpt>
      <trkpt lat="43.37424" lon="2.73685">
        <ele>227.907</ele>
        <time>2011-03-20T13:02:14Z</time>
      </trkpt>
      <trkpt lat="43.37425" lon="2.73683">
        <ele>228.181</ele>
        <time>2011-03-20T13:02:15Z</time>
      </trkpt>
      <trkpt lat="43.37424" lon="2.73674">
        <ele>230.658</ele>
        <time>2011-03-20T13:02:19Z</time>
      </trkpt>
      <trkpt lat="43.37422" lon="2.73671">
        <ele>231.47</ele>
        <time>2011-03-20T13:02:21Z</time>
      </trkpt>
      <trkpt lat="43.37425" lon="2.73664">
        <ele>233.757</ele>
        <time>2011-03-20T13:02:26Z</time>
      </trkpt>
      <trkpt lat="43.37427" lon="2.73654">
        <ele>236.897</ele>
        <time>2011-03-20T13:02:34Z</time>
      </trkpt>
      <trkpt lat="43.37426" lon="2.73651">
        <ele>238.05</ele>
        <time>2011-03-20T13:02:36Z</time>
      </trkpt>
      <trkpt lat="43.37425" lon="2.73648">
        <ele>238.803</ele>
        <time>2011-03-20T13:02:38Z</time>
      </trkpt>
      <trkpt lat="43.37425" lon="2.73643">
        <ele>239.469</ele>
        <time>2011-03-20T13:02:40Z</time>
      </trkpt>
      <trkpt lat="43.37425" lon="2.73638">
        <ele>240.588</ele>
        <time>2011-03-20T13:02:42Z</time>
      </trkpt>
      <trkpt lat="43.37426" lon="2.73619">
        <ele>242.94</ele>
        <time>2011-03-20T13:02:49Z</time>
      </trkpt>
      <trkpt lat="43.37428" lon="2.73598">
        <ele>245.688</ele>
        <time>2011-03-20T13:03:02Z</time>
      </trkpt>
      <trkpt lat="43.37433" lon="2.73583">
        <ele>248.842</ele>
        <time>2011-03-20T13:03:13Z</time>
      </trkpt>
      <trkpt lat="43.37437" lon="2.73561">
        <ele>252.004</ele>
        <time>2011-03-20T13:03:25Z</time>
      </trkpt>
      <trkpt lat="43.37438" lon="2.73557">
        <ele>252.378</ele>
        <time>2011-03-20T13:03:28Z</time>
      </trkpt>
      <trkpt lat="43.37448" lon="2.73568">
        <ele>256.02</ele>
        <time>2011-03-20T13:03:40Z</time>
      </trkpt>
      <trkpt lat="43.37456" lon="2.73575">
        <ele>258.911</ele>
        <time>2011-03-20T13:03:50Z</time>
      </trkpt>
      <trkpt lat="43.37467" lon="2.73588">
        <ele>262.039</ele>
        <time>2011-03-20T13:04:02Z</time>
      </trkpt>
      <trkpt lat="43.37478" lon="2.73595">
        <ele>265.261</ele>
        <time>2011-03-20T13:04:12Z</time>
      </trkpt>
      <trkpt lat="43.37479" lon="2.73596">
        <ele>265.39</ele>
        <time>2011-03-20T13:04:13Z</time>
      </trkpt>
      <trkpt lat="43.37491" lon="2.73601">
        <ele>267.431</ele>
        <time>2011-03-20T13:04:23Z</time>
      </trkpt>
      <trkpt lat="43.37496" lon="2.73604">
        <ele>268.008</ele>
        <time>2011-03-20T13:04:26Z</time>
      </trkpt>
      <trkpt lat="43.37501" lon="2.73608">
        <ele>268.72</ele>
        <time>2011-03-20T13:04:32Z</time>
      </trkpt>
      <trkpt lat="43.37508" lon="2.73605">
        <ele>269.704</ele>
        <time>2011-03-20T13:04:37Z</time>
      </trkpt>
      <trkpt lat="43.37515" lon="2.73616">
        <ele>270.128</ele>
        <time>2011-03-20T13:04:40Z</time>
      </trkpt>
      <trkpt lat="43.3752" lon="2.73616">
        <ele>270.799</ele>
        <time>2011-03-20T13:04:44Z</time>
      </trkpt>
      <trkpt lat="43.37523" lon="2.73622">
        <ele>271.837</ele>
        <time>2011-03-20T13:04:48Z</time>
      </trkpt>
      <trkpt lat="43.37528" lon="2.73622">
        <ele>272.677</ele>
        <time>2011-03-20T13:04:51Z</time>
      </trkpt>
      <trkpt lat="43.37547" lon="2.73619">
        <ele>275.967</ele>
        <time>2011-03-20T13:05:05Z</time>
      </trkpt>
      <trkpt lat="43.37547" lon="2.7361">
        <ele>277.388</ele>
        <time>2011-03-20T13:05:11Z</time>
      </trkpt>
      <trkpt lat="43.37534" lon="2.73599">
        <ele>280.573</ele>
        <time>2011-03-20T13:05:19Z</time>
      </trkpt>
      <trkpt lat="43.37517" lon="2.73583">
        <ele>283.481</ele>
        <time>2011-03-20T13:05:32Z</time>
      </trkpt>
      <trkpt lat="43.37506" lon="2.73563">
        <ele>286.502</ele>
        <time>2011-03-20T13:05:45Z</time>
      </trkpt>
      <trkpt lat="43.37505" lon="2.73561">
        <ele>286.57</ele>
        <time>2011-03-20T13:05:46Z</time>
      </trkpt>
      <trkpt lat="43.3751" lon="2.7356">
        <ele>288.218</ele>
        <time>2011-03-20T13:05:52Z</time>
      </trkpt>
      <trkpt lat="43.37515" lon="2.73563">
        <ele>289.386</ele>
        <time>2011-03-20T13:05:56Z</time>
      </trkpt>
      <trkpt lat="43.37518" lon="2.73564">
        <ele>290.33</ele>
        <time>2011-03-20T13:05:59Z</time>
      </trkpt>
      <trkpt lat="43.37523" lon="2.73564">
        <ele>291.799</ele>
        <time>2011-03-20T13:06:03Z</time>
      </trkpt>
      <trkpt lat="43.3752" lon="2.73545">
        <ele>294.597</ele>
        <time>2011-03-20T13:06:15Z</time>
      </trkpt>
      <trkpt lat="43.37524" lon="2.73533">
        <ele>297.901</ele>
        <time>2011-03-20T13:06:24Z</time>
      </trkpt>
      <trkpt lat="43.37525" lon="2.73531">
        <ele>299.284</ele>
        <time>2011-03-20T13:06:27Z</time>
      </trkpt>
      <trkpt lat="43.37527" lon="2.73514">
        <ele>302.097</ele>
        <time>2011-03-20T13:06:37Z</time>
      </trkpt>
      <trkpt lat="43.37534" lon="2.73502">
        <ele>304.961</ele>
        <time>2011-03-20T13:06:46Z</time>
      </trkpt>
      <trkpt lat="43.37536" lon="2.73498">
        <ele>306.575</ele>
        <time>2011-03-20T13:06:51Z</time>
      </trkpt>
      <trkpt lat="43.37541" lon="2.73482">
        <ele>310.458</ele>
        <time>2011-03-20T13:07:03Z</time>
      </trkpt>
      <trkpt lat="43.37547" lon="2.73479">
        <ele>312.96</ele>
        <time>2011-03-20T13:07:10Z</time>
      </trkpt>
      <trkpt lat="43.37558" lon="2.73491">
        <ele>314.306</ele>
        <time>2011-03-20T13:07:21Z</time>
      </trkpt>
      <trkpt lat="43.37569" lon="2.73497">
        <ele>315.89</ele>
        <time>2011-03-20T13:07:30Z</time>
      </trkpt>
      <trkpt lat="43.37565" lon="2.7348">
        <ele>318.946</ele>
        <time>2011-03-20T13:07:42Z</time>
      </trkpt>
      <trkpt lat="43.37564" lon="2.73474">
        <ele>319.665</ele>
        <time>2011-03-20T13:07:45Z</time>
      </trkpt>
      <trkpt lat="43.37569" lon="2.73464">
        <ele>321.539</ele>
        <time>2011-03-20T13:07:51Z</time>
      </trkpt>
      <trkpt lat="43.37571" lon="2.73448">
        <ele>324.478</ele>
        <time>2011-03-20T13:08:01Z</time>
      </trkpt>
      <trkpt lat="43.37576" lon="2.73432">
        <ele>327.659</ele>
        <time>2011-03-20T13:08:11Z</time>
      </trkpt>
      <trkpt lat="43.37576" lon="2.73423">
        <ele>329.65</ele>
        <time>2011-03-20T13:08:17Z</time>
      </trkpt>
      <trkpt lat="43.37582" lon="2.73398">
        <ele>333.09</ele>
        <time>2011-03-20T13:08:31Z</time>
      </trkpt>
      <trkpt lat="43.37584" lon="2.73388">
        <ele>334.696</ele>
        <time>2011-03-20T13:08:37Z</time>
      </trkpt>
      <trkpt lat="43.37592" lon="2.73388">
        <ele>337.35</ele>
        <time>2011-03-20T13:08:45Z</time>
      </trkpt>
      <trkpt lat="43.37597" lon="2.73391">
        <ele>339.029</ele>
        <time>2011-03-20T13:08:52Z</time>
      </trkpt>
      <trkpt lat="43.37607" lon="2.73375">
        <ele>341.097</ele>
        <time>2011-03-20T13:09:04Z</time>
      </trkpt>
      <trkpt lat="43.37607" lon="2.73367">
        <ele>341.959</ele>
        <time>2011-03-20T13:09:09Z</time>
      </trkpt>
      <trkpt lat="43.37618" lon="2.73342">
        <ele>344.172</ele>
        <time>2011-03-20T13:09:21Z</time>
      </trkpt>
      <trkpt lat="43.37637" lon="2.73316">
        <ele>347.244</ele>
        <time>2011-03-20T13:09:33Z</time>
      </trkpt>
      <trkpt lat="43.37644" lon="2.73315">
        <ele>348.898</ele>
        <time>2011-03-20T13:09:37Z</time>
      </trkpt>
      <trkpt lat="43.37665" lon="2.73323">
        <ele>352.096</ele>
        <time>2011-03-20T13:09:49Z</time>
      </trkpt>
      <trkpt lat="43.37692" lon="2.73338">
        <ele>355.033</ele>
        <time>2011-03-20T13:10:04Z</time>
      </trkpt>
      <trkpt lat="43.37691" lon="2.73346">
        <ele>356.937</ele>
        <time>2011-03-20T13:10:08Z</time>
      </trkpt>
      <trkpt lat="43.37687" lon="2.7335">
        <ele>357.705</ele>
        <time>2011-03-20T13:10:11Z</time>
      </trkpt>
      <trkpt lat="43.37661" lon="2.73361">
        <ele>361.217</ele>
        <time>2011-03-20T13:10:25Z</time>
      </trkpt>
      <trkpt lat="43.37647" lon="2.73385">
        <ele>362.987</ele>
        <time>2011-03-20T13:10:35Z</time>
      </trkpt>
      <trkpt lat="43.37652" lon="2.73421">
        <ele>364.814</ele>
        <time>2011-03-20T13:10:46Z</time>
      </trkpt>
      <trkpt lat="43.37655" lon="2.73425">
        <ele>365.431</ele>
        <time>2011-03-20T13:10:48Z</time>
      </trkpt>
      <trkpt lat="43.37674" lon="2.73437">
        <ele>367.271</ele>
        <time>2011-03-20T13:11:00Z</time>
      </trkpt>
      <trkpt lat="43.37693" lon="2.7345">
        <ele>368.797</ele>
        <time>2011-03-20T13:11:11Z</time>
      </trkpt>
      <trkpt lat="43.37695" lon="2.73454">
        <ele>370.136</ele>
        <time>2011-03-20T13:11:13Z</time>
      </trkpt>
      <trkpt lat="43.37714" lon="2.73477">
        <ele>373.011</ele>
        <time>2011-03-20T13:11:25Z</time>
      </trkpt>
      <trkpt lat="43.37742" lon="2.73471">
        <ele>374.871</ele>
        <time>2011-03-20T13:11:37Z</time>
      </trkpt>
      <trkpt lat="43.37766" lon="2.73466">
        <ele>376.387</ele>
        <time>2011-03-20T13:11:47Z</time>
      </trkpt>
      <trkpt lat="43.37768" lon="2.73477">
        <ele>377.829</ele>
        <time>2011-03-20T13:11:51Z</time>
      </trkpt>
      <trkpt lat="43.37767" lon="2.73519">
        <ele>380.462</ele>
        <time>2011-03-20T13:12:06Z</time>
      </trkpt>
      <trkpt lat="43.37784" lon="2.73523">
        <ele>382.612</ele>
        <time>2011-03-20T13:12:16Z</time>
      </trkpt>
      <trkpt lat="43.37809" lon="2.73527">
        <ele>385.708</ele>
        <time>2011-03-20T13:12:29Z</time>
      </trkpt>
      <trkpt lat="43.3782" lon="2.73526">
        <ele>387.457</ele>
        <time>2011-03-20T13:12:33Z</time>
      </trkpt>
      <trkpt lat="43.37821" lon="2.73518">
        <ele>387.687</ele>
        <time>2011-03-20T13:12:37Z</time>
      </trkpt>
      <trkpt lat="43.37815" lon="2.73501">
        <ele>388.752</ele>
        <time>2011-03-20T13:12:44Z</time>
      </trkpt>
      <trkpt lat="43.3783" lon="2.73466">
        <ele>391.165</ele>
        <time>2011-03-20T13:12:58Z</time>
      </trkpt>
      <trkpt lat="43.37859" lon="2.73446">
        <ele>393.787</ele>
        <time>2011-03-20T13:13:12Z</time>
      </trkpt>
      <trkpt lat="43.37884" lon="2.7343">
        <ele>397.324</ele>
        <time>2011-03-20T13:13:25Z</time>
      </trkpt>
      <trkpt lat="43.37908" lon="2.73416">
        <ele>398.661</ele>
        <time>2011-03-20T13:13:36Z</time>
      </trkpt>
      <trkpt lat="43.37932" lon="2.73402">
        <ele>401.673</ele>
        <time>2011-03-20T13:13:48Z</time>
      </trkpt>
      <trkpt lat="43.37959" lon="2.73401">
        <ele>403.446</ele>
        <time>2011-03-20T13:14:00Z</time>
      </trkpt>
      <trkpt lat="43.3798" lon="2.734">
        <ele>405.246</ele>
        <time>2011-03-20T13:14:10Z</time>
      </trkpt>
      <trkpt lat="43.37999" lon="2.734">
        <ele>408.058</ele>
        <time>2011-03-20T13:14:18Z</time>
      </trkpt>
      <trkpt lat="43.38019" lon="2.73402">
        <ele>410.03</ele>
        <time>2011-03-20T13:14:27Z</time>
      </trkpt>
      <trkpt lat="43.38041" lon="2.73408">
        <ele>411.979</ele>
        <time>2011-03-20T13:14:37Z</time>
      </trkpt>
      <trkpt lat="43.38061" lon="2.7342">
        <ele>414.755</ele>
        <time>2011-03-20T13:14:47Z</time>
      </trkpt>
      <trkpt lat="43.3808" lon="2.73433">
        <ele>416.756</ele>
        <time>2011-03-20T13:14:56Z</time>
      </trkpt>
      <trkpt lat="43.38106" lon="2.73451">
        <ele>419.843</ele>
        <time>2011-03-20T13:15:08Z</time>
      </trkpt>
      <trkpt lat="43.38121" lon="2.73466">
        <ele>420.262</ele>
        <time>2011-03-20T13:15:16Z</time>
      </trkpt>
      <trkpt lat="43.38157" lon="2.73513">
        <ele>422.108</ele>
        <time>2011-03-20T13:15:37Z</time>
      </trkpt>
      <trkpt lat="43.38187" lon="2.73546">
        <ele>423.456</ele>
        <time>2011-03-20T13:15:53Z</time>
      </trkpt>
      <trkpt lat="43.38218" lon="2.73554">
        <ele>423.964</ele>
        <time>2011-03-20T13:16:05Z</time>
      </trkpt>
      <trkpt lat="43.38219" lon="2.73555">
        <ele>427.165</ele>
        <time>2011-03-20T13:16:06Z</time>
      </trkpt>
      <trkpt lat="43.38223" lon="2.73558">
        <ele>427.158</ele>
        <time>2011-03-20T13:16:08Z</time>
      </trkpt>
      <trkpt lat="43.38238" lon="2.73571">
        <ele>427.929</ele>
        <time>2011-03-20T13:16:15Z</time>
      </trkpt>
      <trkpt lat="43.38248" lon="2.73575">
        <ele>428.816</ele>
        <time>2011-03-20T13:16:20Z</time>
      </trkpt>
      <trkpt lat="43.38266" lon="2.73581">
        <ele>430.99</ele>
        <time>2011-03-20T13:16:28Z</time>
      </trkpt>
      <trkpt lat="43.38279" lon="2.73572">
        <ele>432.517</ele>
        <time>2011-03-20T13:16:33Z</time>
      </trkpt>
      <trkpt lat="43.3827" lon="2.73551">
        <ele>434.489</ele>
        <time>2011-03-20T13:16:41Z</time>
      </trkpt>
      <trkpt lat="43.38271" lon="2.73517">
        <ele>436.737</ele>
        <time>2011-03-20T13:16:53Z</time>
      </trkpt>
      <trkpt lat="43.38276" lon="2.73496">
        <ele>437.936</ele>
        <time>2011-03-20T13:17:02Z</time>
      </trkpt>
      <trkpt lat="43.38284" lon="2.73472">
        <ele>439.333</ele>
        <time>2011-03-20T13:17:09Z</time>
      </trkpt>
      <trkpt lat="43.38283" lon="2.73461">
        <ele>440.586</ele>
        <time>2011-03-20T13:17:13Z</time>
      </trkpt>
      <trkpt lat="43.38279" lon="2.73436">
        <ele>441.958</ele>
        <time>2011-03-20T13:17:21Z</time>
      </trkpt>
      <trkpt lat="43.38281" lon="2.73422">
        <ele>443.121</ele>
        <time>2011-03-20T13:17:25Z</time>
      </trkpt>
      <trkpt lat="43.38289" lon="2.73407">
        <ele>445.05</ele>
        <time>2011-03-20T13:17:34Z</time>
      </trkpt>
      <trkpt lat="43.38285" lon="2.73409">
        <ele>444.598</ele>
        <time>2011-03-20T13:17:43Z</time>
      </trkpt>
      <trkpt lat="43.38281" lon="2.73423">
        <ele>443.105</ele>
        <time>2011-03-20T13:17:49Z</time>
      </trkpt>
      <trkpt lat="43.38285" lon="2.73458">
        <ele>440.103</ele>
        <time>2011-03-20T13:17:58Z</time>
      </trkpt>
      <trkpt lat="43.38287" lon="2.73471">
        <ele>438.855</ele>
        <time>2011-03-20T13:18:01Z</time>
      </trkpt>
      <trkpt lat="43.38279" lon="2.73501">
        <ele>436.826</ele>
        <time>2011-03-20T13:18:07Z</time>
      </trkpt>
      <trkpt lat="43.38276" lon="2.73539">
        <ele>433.78</ele>
        <time>2011-03-20T13:18:14Z</time>
      </trkpt>
      <trkpt lat="43.38277" lon="2.73559">
        <ele>433.269</ele>
        <time>2011-03-20T13:18:17Z</time>
      </trkpt>
      <trkpt lat="43.38274" lon="2.73586">
        <ele>430.596</ele>
        <time>2011-03-20T13:18:25Z</time>
      </trkpt>
      <trkpt lat="43.38268" lon="2.73584">
        <ele>429.989</ele>
        <time>2011-03-20T13:18:27Z</time>
      </trkpt>
      <trkpt lat="43.38247" lon="2.73573">
        <ele>428.037</ele>
        <time>2011-03-20T13:18:34Z</time>
      </trkpt>
      <trkpt lat="43.38222" lon="2.73556">
        <ele>425.237</ele>
        <time>2011-03-20T13:18:42Z</time>
      </trkpt>
      <trkpt lat="43.38194" lon="2.73546">
        <ele>424.115</ele>
        <time>2011-03-20T13:18:50Z</time>
      </trkpt>
      <trkpt lat="43.38169" lon="2.73529">
        <ele>422.819</ele>
        <time>2011-03-20T13:18:59Z</time>
      </trkpt>
      <trkpt lat="43.38149" lon="2.73495">
        <ele>421.413</ele>
        <time>2011-03-20T13:19:08Z</time>
      </trkpt>
      <trkpt lat="43.38123" lon="2.73465">
        <ele>420.584</ele>
        <time>2011-03-20T13:19:20Z</time>
      </trkpt>
      <trkpt lat="43.38105" lon="2.73449">
        <ele>418.924</ele>
        <time>2011-03-20T13:19:34Z</time>
      </trkpt>
      <trkpt lat="43.38087" lon="2.73436">
        <ele>417.379</ele>
        <time>2011-03-20T13:19:40Z</time>
      </trkpt>
      <trkpt lat="43.38078" lon="2.73432">
        <ele>415.809</ele>
        <time>2011-03-20T13:19:43Z</time>
      </trkpt>
      <trkpt lat="43.3805" lon="2.73414">
        <ele>413.558</ele>
        <time>2011-03-20T13:19:52Z</time>
      </trkpt>
      <trkpt lat="43.38034" lon="2.73407">
        <ele>411.341</ele>
        <time>2011-03-20T13:19:56Z</time>
      </trkpt>
      <trkpt lat="43.38005" lon="2.73405">
        <ele>407.879</ele>
        <time>2011-03-20T13:20:04Z</time>
      </trkpt>
      <trkpt lat="43.37977" lon="2.734">
        <ele>405.229</ele>
        <time>2011-03-20T13:20:12Z</time>
      </trkpt>
      <trkpt lat="43.37949" lon="2.734">
        <ele>402.514</ele>
        <time>2011-03-20T13:20:19Z</time>
      </trkpt>
      <trkpt lat="43.3794" lon="2.73401">
        <ele>401.938</ele>
        <time>2011-03-20T13:20:22Z</time>
      </trkpt>
      <trkpt lat="43.37912" lon="2.73415">
        <ele>398.939</ele>
        <time>2011-03-20T13:20:31Z</time>
      </trkpt>
      <trkpt lat="43.37881" lon="2.73434">
        <ele>395.53</ele>
        <time>2011-03-20T13:20:41Z</time>
      </trkpt>
      <trkpt lat="43.37853" lon="2.7345">
        <ele>393.149</ele>
        <time>2011-03-20T13:20:50Z</time>
      </trkpt>
      <trkpt lat="43.37832" lon="2.73466">
        <ele>389.788</ele>
        <time>2011-03-20T13:20:57Z</time>
      </trkpt>
      <trkpt lat="43.37821" lon="2.7348">
        <ele>389.371</ele>
        <time>2011-03-20T13:21:01Z</time>
      </trkpt>
      <trkpt lat="43.37817" lon="2.73503">
        <ele>388.102</ele>
        <time>2011-03-20T13:21:06Z</time>
      </trkpt>
      <trkpt lat="43.37823" lon="2.73522">
        <ele>387.225</ele>
        <time>2011-03-20T13:21:11Z</time>
      </trkpt>
      <trkpt lat="43.37799" lon="2.73526">
        <ele>383.843</ele>
        <time>2011-03-20T13:21:19Z</time>
      </trkpt>
      <trkpt lat="43.3779" lon="2.73525">
        <ele>382.723</ele>
        <time>2011-03-20T13:21:22Z</time>
      </trkpt>
      <trkpt lat="43.37776" lon="2.73523">
        <ele>380.664</ele>
        <time>2011-03-20T13:21:26Z</time>
      </trkpt>
      <trkpt lat="43.37773" lon="2.73521">
        <ele>379.591</ele>
        <time>2011-03-20T13:21:27Z</time>
      </trkpt>
      <trkpt lat="43.37767" lon="2.73482">
        <ele>377.014</ele>
        <time>2011-03-20T13:21:36Z</time>
      </trkpt>
      <trkpt lat="43.3776" lon="2.73463">
        <ele>375.719</ele>
        <time>2011-03-20T13:21:43Z</time>
      </trkpt>
      <trkpt lat="43.37757" lon="2.73465">
        <ele>375.616</ele>
        <time>2011-03-20T13:21:44Z</time>
      </trkpt>
      <trkpt lat="43.37736" lon="2.73469">
        <ele>375.21</ele>
        <time>2011-03-20T13:21:51Z</time>
      </trkpt>
      <trkpt lat="43.37721" lon="2.73475">
        <ele>373.69</ele>
        <time>2011-03-20T13:21:56Z</time>
      </trkpt>
      <trkpt lat="43.37714" lon="2.73474">
        <ele>373.056</ele>
        <time>2011-03-20T13:21:58Z</time>
      </trkpt>
      <trkpt lat="43.37708" lon="2.73471">
        <ele>371.805</ele>
        <time>2011-03-20T13:22:00Z</time>
      </trkpt>
      <trkpt lat="43.37694" lon="2.73446">
        <ele>369.521</ele>
        <time>2011-03-20T13:22:08Z</time>
      </trkpt>
      <trkpt lat="43.37673" lon="2.73438">
        <ele>368.221</ele>
        <time>2011-03-20T13:22:15Z</time>
      </trkpt>
      <trkpt lat="43.37671" lon="2.73437">
        <ele>368.005</ele>
        <time>2011-03-20T13:22:16Z</time>
      </trkpt>
      <trkpt lat="43.37664" lon="2.73435">
        <ele>366.955</ele>
        <time>2011-03-20T13:22:18Z</time>
      </trkpt>
      <trkpt lat="43.37649" lon="2.73406">
        <ele>364.683</ele>
        <time>2011-03-20T13:22:26Z</time>
      </trkpt>
      <trkpt lat="43.37646" lon="2.73395">
        <ele>363.702</ele>
        <time>2011-03-20T13:22:29Z</time>
      </trkpt>
      <trkpt lat="43.37647" lon="2.73384">
        <ele>363.112</ele>
        <time>2011-03-20T13:22:32Z</time>
      </trkpt>
      <trkpt lat="43.37651" lon="2.73373">
        <ele>361.307</ele>
        <time>2011-03-20T13:22:35Z</time>
      </trkpt>
      <trkpt lat="43.37653" lon="2.73365">
        <ele>362.044</ele>
        <time>2011-03-20T13:22:37Z</time>
      </trkpt>
      <trkpt lat="43.37675" lon="2.73351">
        <ele>359.608</ele>
        <time>2011-03-20T13:22:46Z</time>
      </trkpt>
      <trkpt lat="43.37682" lon="2.73349">
        <ele>358.233</ele>
        <time>2011-03-20T13:22:49Z</time>
      </trkpt>
      <trkpt lat="43.37686" lon="2.73345">
        <ele>357.278</ele>
        <time>2011-03-20T13:22:51Z</time>
      </trkpt>
      <trkpt lat="43.37691" lon="2.73333">
        <ele>355.543</ele>
        <time>2011-03-20T13:22:54Z</time>
      </trkpt>
      <trkpt lat="43.37689" lon="2.73329">
        <ele>355.563</ele>
        <time>2011-03-20T13:22:55Z</time>
      </trkpt>
      <trkpt lat="43.37673" lon="2.73324">
        <ele>353.585</ele>
        <time>2011-03-20T13:23:01Z</time>
      </trkpt>
      <trkpt lat="43.37664" lon="2.73319">
        <ele>352.213</ele>
        <time>2011-03-20T13:23:04Z</time>
      </trkpt>
      <trkpt lat="43.37642" lon="2.73313">
        <ele>348.855</ele>
        <time>2011-03-20T13:23:11Z</time>
      </trkpt>
      <trkpt lat="43.37639" lon="2.73314">
        <ele>348.469</ele>
        <time>2011-03-20T13:23:12Z</time>
      </trkpt>
      <trkpt lat="43.37633" lon="2.73321">
        <ele>347.424</ele>
        <time>2011-03-20T13:23:15Z</time>
      </trkpt>
      <trkpt lat="43.3763" lon="2.73329">
        <ele>346.553</ele>
        <time>2011-03-20T13:23:17Z</time>
      </trkpt>
      <trkpt lat="43.37623" lon="2.7334">
        <ele>345.238</ele>
        <time>2011-03-20T13:23:20Z</time>
      </trkpt>
      <trkpt lat="43.37613" lon="2.7336">
        <ele>343.807</ele>
        <time>2011-03-20T13:23:25Z</time>
      </trkpt>
      <trkpt lat="43.37608" lon="2.73379">
        <ele>342.581</ele>
        <time>2011-03-20T13:23:29Z</time>
      </trkpt>
      <trkpt lat="43.37603" lon="2.73389">
        <ele>340.377</ele>
        <time>2011-03-20T13:23:33Z</time>
      </trkpt>
      <trkpt lat="43.37596" lon="2.73389">
        <ele>338.91</ele>
        <time>2011-03-20T13:23:36Z</time>
      </trkpt>
      <trkpt lat="43.37592" lon="2.73387">
        <ele>337.821</ele>
        <time>2011-03-20T13:23:38Z</time>
      </trkpt>
      <trkpt lat="43.37585" lon="2.73398">
        <ele>335.275</ele>
        <time>2011-03-20T13:23:44Z</time>
      </trkpt>
      <trkpt lat="43.37585" lon="2.73405">
        <ele>333.582</ele>
        <time>2011-03-20T13:23:46Z</time>
      </trkpt>
      <trkpt lat="43.37584" lon="2.73415">
        <ele>331.841</ele>
        <time>2011-03-20T13:23:50Z</time>
      </trkpt>
      <trkpt lat="43.37582" lon="2.73427">
        <ele>329.545</ele>
        <time>2011-03-20T13:23:54Z</time>
      </trkpt>
      <trkpt lat="43.37578" lon="2.73448">
        <ele>326.497</ele>
        <time>2011-03-20T13:23:59Z</time>
      </trkpt>
      <trkpt lat="43.37577" lon="2.73451">
        <ele>326.214</ele>
        <time>2011-03-20T13:24:00Z</time>
      </trkpt>
      <trkpt lat="43.37577" lon="2.73455">
        <ele>325.574</ele>
        <time>2011-03-20T13:24:01Z</time>
      </trkpt>
      <trkpt lat="43.37576" lon="2.73462">
        <ele>324.757</ele>
        <time>2011-03-20T13:24:03Z</time>
      </trkpt>
      <trkpt lat="43.37571" lon="2.73471">
        <ele>322.734</ele>
        <time>2011-03-20T13:24:07Z</time>
      </trkpt>
      <trkpt lat="43.37569" lon="2.73473">
        <ele>321.601</ele>
        <time>2011-03-20T13:24:08Z</time>
      </trkpt>
      <trkpt lat="43.3757" lon="2.73489">
        <ele>318.368</ele>
        <time>2011-03-20T13:24:16Z</time>
      </trkpt>
      <trkpt lat="43.3757" lon="2.73495">
        <ele>316.572</ele>
        <time>2011-03-20T13:24:20Z</time>
      </trkpt>
      <trkpt lat="43.37551" lon="2.73483">
        <ele>313.322</ele>
        <time>2011-03-20T13:24:28Z</time>
      </trkpt>
      <trkpt lat="43.37544" lon="2.7348">
        <ele>312.262</ele>
        <time>2011-03-20T13:24:31Z</time>
      </trkpt>
      <trkpt lat="43.37539" lon="2.73485">
        <ele>310.062</ele>
        <time>2011-03-20T13:24:35Z</time>
      </trkpt>
      <trkpt lat="43.37536" lon="2.73494">
        <ele>307.161</ele>
        <time>2011-03-20T13:24:40Z</time>
      </trkpt>
      <trkpt lat="43.37531" lon="2.735">
        <ele>305.128</ele>
        <time>2011-03-20T13:24:44Z</time>
      </trkpt>
      <trkpt lat="43.3753" lon="2.73504">
        <ele>303.352</ele>
        <time>2011-03-20T13:24:47Z</time>
      </trkpt>
      <trkpt lat="43.37529" lon="2.7352">
        <ele>300.101</ele>
        <time>2011-03-20T13:24:53Z</time>
      </trkpt>
      <trkpt lat="43.37526" lon="2.73535">
        <ele>296.816</ele>
        <time>2011-03-20T13:25:00Z</time>
      </trkpt>
      <trkpt lat="43.37524" lon="2.73546">
        <ele>294.617</ele>
        <time>2011-03-20T13:25:04Z</time>
      </trkpt>
      <trkpt lat="43.37527" lon="2.73558">
        <ele>292.426</ele>
        <time>2011-03-20T13:25:09Z</time>
      </trkpt>
      <trkpt lat="43.37517" lon="2.73557">
        <ele>288.366</ele>
        <time>2011-03-20T13:25:17Z</time>
      </trkpt>
      <trkpt lat="43.37514" lon="2.73556">
        <ele>287.788</ele>
        <time>2011-03-20T13:25:19Z</time>
      </trkpt>
      <trkpt lat="43.37515" lon="2.73584">
        <ele>283.845</ele>
        <time>2011-03-20T13:25:28Z</time>
      </trkpt>
      <trkpt lat="43.37524" lon="2.73592">
        <ele>281.998</ele>
        <time>2011-03-20T13:25:33Z</time>
      </trkpt>
      <trkpt lat="43.37527" lon="2.73593">
        <ele>281.532</ele>
        <time>2011-03-20T13:25:34Z</time>
      </trkpt>
      <trkpt lat="43.37535" lon="2.73596">
        <ele>280.225</ele>
        <time>2011-03-20T13:25:38Z</time>
      </trkpt>
      <trkpt lat="43.37537" lon="2.73612">
        <ele>278.417</ele>
        <time>2011-03-20T13:25:41Z</time>
      </trkpt>
      <trkpt lat="43.37542" lon="2.73618">
        <ele>276.393</ele>
        <time>2011-03-20T13:25:46Z</time>
      </trkpt>
      <trkpt lat="43.37537" lon="2.73622">
        <ele>273.94</ele>
        <time>2011-03-20T13:25:51Z</time>
      </trkpt>
      <trkpt lat="43.37528" lon="2.73624">
        <ele>271.21</ele>
        <time>2011-03-20T13:25:57Z</time>
      </trkpt>
      <trkpt lat="43.3752" lon="2.7362">
        <ele>270.187</ele>
        <time>2011-03-20T13:26:01Z</time>
      </trkpt>
      <trkpt lat="43.37512" lon="2.73621">
        <ele>269.353</ele>
        <time>2011-03-20T13:26:04Z</time>
      </trkpt>
      <trkpt lat="43.3749" lon="2.73601">
        <ele>265.942</ele>
        <time>2011-03-20T13:26:15Z</time>
      </trkpt>
      <trkpt lat="43.37479" lon="2.73601">
        <ele>263.761</ele>
        <time>2011-03-20T13:26:19Z</time>
      </trkpt>
      <trkpt lat="43.37474" lon="2.73594">
        <ele>262.005</ele>
        <time>2011-03-20T13:26:23Z</time>
      </trkpt>
      <trkpt lat="43.37469" lon="2.73586">
        <ele>260.761</ele>
        <time>2011-03-20T13:26:26Z</time>
      </trkpt>
      <trkpt lat="43.37466" lon="2.73584">
        <ele>259.561</ele>
        <time>2011-03-20T13:26:28Z</time>
      </trkpt>
      <trkpt lat="43.37458" lon="2.73577">
        <ele>257.31</ele>
        <time>2011-03-20T13:26:33Z</time>
      </trkpt>
      <trkpt lat="43.3745" lon="2.73569">
        <ele>255.306</ele>
        <time>2011-03-20T13:26:37Z</time>
      </trkpt>
      <trkpt lat="43.37444" lon="2.73564">
        <ele>252.968</ele>
        <time>2011-03-20T13:26:41Z</time>
      </trkpt>
      <trkpt lat="43.37438" lon="2.73571">
        <ele>251.729</ele>
        <time>2011-03-20T13:26:44Z</time>
      </trkpt>
      <trkpt lat="43.37434" lon="2.73577">
        <ele>250.172</ele>
        <time>2011-03-20T13:26:47Z</time>
      </trkpt>
      <trkpt lat="43.37435" lon="2.73585">
        <ele>248.495</ele>
        <time>2011-03-20T13:26:51Z</time>
      </trkpt>
      <trkpt lat="43.37433" lon="2.7359">
        <ele>247.084</ele>
        <time>2011-03-20T13:26:54Z</time>
      </trkpt>
      <trkpt lat="43.37431" lon="2.73598">
        <ele>245.385</ele>
        <time>2011-03-20T13:26:58Z</time>
      </trkpt>
      <trkpt lat="43.3743" lon="2.7361">
        <ele>242.462</ele>
        <time>2011-03-20T13:27:04Z</time>
      </trkpt>
      <trkpt lat="43.3743" lon="2.73615">
        <ele>241.717</ele>
        <time>2011-03-20T13:27:06Z</time>
      </trkpt>
      <trkpt lat="43.37434" lon="2.73624">
        <ele>239.727</ele>
        <time>2011-03-20T13:27:10Z</time>
      </trkpt>
      <trkpt lat="43.37436" lon="2.7364">
        <ele>236.07</ele>
        <time>2011-03-20T13:27:17Z</time>
      </trkpt>
      <trkpt lat="43.37432" lon="2.73653">
        <ele>235.98</ele>
        <time>2011-03-20T13:27:18Z</time>
      </trkpt>
      <trkpt lat="43.37431" lon="2.73654">
        <ele>234.546</ele>
        <time>2011-03-20T13:27:21Z</time>
      </trkpt>
      <trkpt lat="43.37429" lon="2.73653">
        <ele>233.46</ele>
        <time>2011-03-20T13:27:23Z</time>
      </trkpt>
      <trkpt lat="43.37425" lon="2.73661">
        <ele>231.177</ele>
        <time>2011-03-20T13:27:28Z</time>
      </trkpt>
      <trkpt lat="43.37425" lon="2.73662">
        <ele>230.819</ele>
        <time>2011-03-20T13:27:29Z</time>
      </trkpt>
      <trkpt lat="43.37423" lon="2.73675">
        <ele>229.121</ele>
        <time>2011-03-20T13:27:33Z</time>
      </trkpt>
      <trkpt lat="43.37422" lon="2.73682">
        <ele>227.25</ele>
        <time>2011-03-20T13:27:37Z</time>
      </trkpt>
      <trkpt lat="43.37422" lon="2.73685">
        <ele>226.732</ele>
        <time>2011-03-20T13:27:38Z</time>
      </trkpt>
      <trkpt lat="43.37426" lon="2.73689">
        <ele>225.392</ele>
        <time>2011-03-20T13:27:41Z</time>
      </trkpt>
      <trkpt lat="43.37429" lon="2.73691">
        <ele>224.196</ele>
        <time>2011-03-20T13:27:43Z</time>
      </trkpt>
      <trkpt lat="43.3744" lon="2.73702">
        <ele>221.341</ele>
        <time>2011-03-20T13:27:52Z</time>
      </trkpt>
      <trkpt lat="43.37438" lon="2.73703">
        <ele>221.842</ele>
        <time>2011-03-20T13:28:00Z</time>
      </trkpt>
      <trkpt lat="43.3743" lon="2.73716">
        <ele>222.101</ele>
        <time>2011-03-20T13:28:09Z</time>
      </trkpt>
      <trkpt lat="43.37429" lon="2.7372">
        <ele>222.45</ele>
        <time>2011-03-20T13:28:16Z</time>
      </trkpt>
      <trkpt lat="43.37423" lon="2.73716">
        <ele>221.223</ele>
        <time>2011-03-20T13:28:19Z</time>
      </trkpt>
      <trkpt lat="43.37416" lon="2.73713">
        <ele>219.674</ele>
        <time>2011-03-20T13:28:22Z</time>
      </trkpt>
      <trkpt lat="43.37399" lon="2.73707">
        <ele>217.683</ele>
        <time>2011-03-20T13:28:28Z</time>
      </trkpt>
      <trkpt lat="43.37386" lon="2.73723">
        <ele>220.686</ele>
        <time>2011-03-20T13:28:35Z</time>
      </trkpt>
      <trkpt lat="43.37381" lon="2.73737">
        <ele>221.593</ele>
        <time>2011-03-20T13:28:40Z</time>
      </trkpt>
      <trkpt lat="43.37383" lon="2.73745">
        <ele>223.101</ele>
        <time>2011-03-20T13:28:45Z</time>
      </trkpt>
      <trkpt lat="43.37385" lon="2.73747">
        <ele>223.947</ele>
        <time>2011-03-20T13:28:47Z</time>
      </trkpt>
      <trkpt lat="43.37386" lon="2.73756">
        <ele>225.576</ele>
        <time>2011-03-20T13:28:51Z</time>
      </trkpt>
      <trkpt lat="43.37386" lon="2.7376">
        <ele>226.726</ele>
        <time>2011-03-20T13:28:53Z</time>
      </trkpt>
      <trkpt lat="43.37385" lon="2.73784">
        <ele>228.98</ele>
        <time>2011-03-20T13:29:01Z</time>
      </trkpt>
      <trkpt lat="43.37382" lon="2.73792">
        <ele>228.663</ele>
        <time>2011-03-20T13:29:04Z</time>
      </trkpt>
      <trkpt lat="43.37377" lon="2.73818">
        <ele>227.897</ele>
        <time>2011-03-20T13:29:10Z</time>
      </trkpt>
      <trkpt lat="43.37372" lon="2.73851">
        <ele>225.537</ele>
        <time>2011-03-20T13:29:19Z</time>
      </trkpt>
      <trkpt lat="43.37369" lon="2.73874">
        <ele>224.838</ele>
        <time>2011-03-20T13:29:25Z</time>
      </trkpt>
      <trkpt lat="43.37356" lon="2.73882">
        <ele>225.598</ele>
        <time>2011-03-20T13:29:29Z</time>
      </trkpt>
      <trkpt lat="43.37348" lon="2.73896">
        <ele>227.694</ele>
        <time>2011-03-20T13:29:36Z</time>
      </trkpt>
      <trkpt lat="43.37346" lon="2.739">
        <ele>228.201</ele>
        <time>2011-03-20T13:29:38Z</time>
      </trkpt>
      <trkpt lat="43.37323" lon="2.73911">
        <ele>231.495</ele>
        <time>2011-03-20T13:29:48Z</time>
      </trkpt>
      <trkpt lat="43.37311" lon="2.73917">
        <ele>232.992</ele>
        <time>2011-03-20T13:29:53Z</time>
      </trkpt>
      <trkpt lat="43.37303" lon="2.73924">
        <ele>235.22</ele>
        <time>2011-03-20T13:29:58Z</time>
      </trkpt>
      <trkpt lat="43.373" lon="2.73926">
        <ele>236.487</ele>
        <time>2011-03-20T13:30:01Z</time>
      </trkpt>
      <trkpt lat="43.3729" lon="2.73937">
        <ele>237.601</ele>
        <time>2011-03-20T13:30:07Z</time>
      </trkpt>
      <trkpt lat="43.37287" lon="2.73933">
        <ele>239.353</ele>
        <time>2011-03-20T13:30:12Z</time>
      </trkpt>
      <trkpt lat="43.37286" lon="2.73931">
        <ele>240.113</ele>
        <time>2011-03-20T13:30:14Z</time>
      </trkpt>
      <trkpt lat="43.3728" lon="2.73927">
        <ele>242.213</ele>
        <time>2011-03-20T13:30:22Z</time>
      </trkpt>
      <trkpt lat="43.37277" lon="2.73927">
        <ele>243.617</ele>
        <time>2011-03-20T13:30:25Z</time>
      </trkpt>
      <trkpt lat="43.37265" lon="2.73927">
        <ele>246.784</ele>
        <time>2011-03-20T13:30:34Z</time>
      </trkpt>
      <trkpt lat="43.37264" lon="2.73928">
        <ele>246.898</ele>
        <time>2011-03-20T13:30:35Z</time>
      </trkpt>
      <trkpt lat="43.37262" lon="2.7393">
        <ele>247.481</ele>
        <time>2011-03-20T13:30:37Z</time>
      </trkpt>
      <trkpt lat="43.37253" lon="2.73928">
        <ele>248.77</ele>
        <time>2011-03-20T13:30:44Z</time>
      </trkpt>
      <trkpt lat="43.37242" lon="2.73925">
        <ele>249.621</ele>
        <time>2011-03-20T13:30:51Z</time>
      </trkpt>
      <trkpt lat="43.37232" lon="2.73926">
        <ele>250.654</ele>
        <time>2011-03-20T13:30:58Z</time>
      </trkpt>
      <trkpt lat="43.3722" lon="2.73928">
        <ele>250.805</ele>
        <time>2011-03-20T13:31:05Z</time>
      </trkpt>
      <trkpt lat="43.37198" lon="2.73945">
        <ele>252.825</ele>
        <time>2011-03-20T13:31:16Z</time>
      </trkpt>
      <trkpt lat="43.37193" lon="2.73948">
        <ele>252.225</ele>
        <time>2011-03-20T13:31:19Z</time>
      </trkpt>
      <trkpt lat="43.37184" lon="2.73951">
        <ele>250.712</ele>
        <time>2011-03-20T13:31:23Z</time>
      </trkpt>
      <trkpt lat="43.37179" lon="2.73952">
        <ele>252.209</ele>
        <time>2011-03-20T13:31:26Z</time>
      </trkpt>
      <trkpt lat="43.37169" lon="2.73968">
        <ele>254.638</ele>
        <time>2011-03-20T13:31:34Z</time>
      </trkpt>
      <trkpt lat="43.37168" lon="2.73965">
        <ele>254.348</ele>
        <time>2011-03-20T13:31:35Z</time>
      </trkpt>
      <trkpt lat="43.37144" lon="2.73976">
        <ele>256.56</ele>
        <time>2011-03-20T13:31:46Z</time>
      </trkpt>
      <trkpt lat="43.37136" lon="2.73981">
        <ele>256.551</ele>
        <time>2011-03-20T13:31:50Z</time>
      </trkpt>
      <trkpt lat="43.37107" lon="2.74">
        <ele>259.141</ele>
        <time>2011-03-20T13:32:01Z</time>
      </trkpt>
      <trkpt lat="43.37104" lon="2.74002">
        <ele>259.188</ele>
        <time>2011-03-20T13:32:02Z</time>
      </trkpt>
      <trkpt lat="43.37093" lon="2.74005">
        <ele>258.723</ele>
        <time>2011-03-20T13:32:07Z</time>
      </trkpt>
      <trkpt lat="43.37087" lon="2.74011">
        <ele>260.301</ele>
        <time>2011-03-20T13:32:10Z</time>
      </trkpt>
      <trkpt lat="43.37086" lon="2.74013">
        <ele>260.523</ele>
        <time>2011-03-20T13:32:11Z</time>
      </trkpt>
      <trkpt lat="43.37079" lon="2.74013">
        <ele>260.154</ele>
        <time>2011-03-20T13:32:14Z</time>
      </trkpt>
      <trkpt lat="43.3707" lon="2.74023">
        <ele>260.58</ele>
        <time>2011-03-20T13:32:19Z</time>
      </trkpt>
      <trkpt lat="43.37069" lon="2.74025">
        <ele>260.731</ele>
        <time>2011-03-20T13:32:20Z</time>
      </trkpt>
      <trkpt lat="43.37062" lon="2.74034">
        <ele>259.721</ele>
        <time>2011-03-20T13:32:24Z</time>
      </trkpt>
      <trkpt lat="43.37048" lon="2.74077">
        <ele>258.453</ele>
        <time>2011-03-20T13:32:37Z</time>
      </trkpt>
      <trkpt lat="43.37046" lon="2.74081">
        <ele>258.257</ele>
        <time>2011-03-20T13:32:38Z</time>
      </trkpt>
      <trkpt lat="43.37039" lon="2.74105">
        <ele>259.898</ele>
        <time>2011-03-20T13:32:46Z</time>
      </trkpt>
      <trkpt lat="43.37039" lon="2.74114">
        <ele>260.11</ele>
        <time>2011-03-20T13:32:48Z</time>
      </trkpt>
      <trkpt lat="43.37032" lon="2.74131">
        <ele>259.965</ele>
        <time>2011-03-20T13:32:53Z</time>
      </trkpt>
      <trkpt lat="43.37024" lon="2.74129">
        <ele>261.343</ele>
        <time>2011-03-20T13:32:56Z</time>
      </trkpt>
      <trkpt lat="43.37009" lon="2.74116">
        <ele>263.785</ele>
        <time>2011-03-20T13:33:08Z</time>
      </trkpt>
      <trkpt lat="43.36996" lon="2.74107">
        <ele>265.815</ele>
        <time>2011-03-20T13:33:19Z</time>
      </trkpt>
      <trkpt lat="43.36982" lon="2.74092">
        <ele>267.813</ele>
        <time>2011-03-20T13:33:29Z</time>
      </trkpt>
      <trkpt lat="43.3696" lon="2.7408">
        <ele>270.201</ele>
        <time>2011-03-20T13:33:38Z</time>
      </trkpt>
      <trkpt lat="43.36945" lon="2.74067">
        <ele>268.672</ele>
        <time>2011-03-20T13:33:44Z</time>
      </trkpt>
      <trkpt lat="43.36914" lon="2.74069">
        <ele>270.644</ele>
        <time>2011-03-20T13:33:55Z</time>
      </trkpt>
      <trkpt lat="43.36906" lon="2.74066">
        <ele>271.389</ele>
        <time>2011-03-20T13:33:58Z</time>
      </trkpt>
      <trkpt lat="43.36886" lon="2.74062">
        <ele>270.765</ele>
        <time>2011-03-20T13:34:05Z</time>
      </trkpt>
      <trkpt lat="43.36881" lon="2.74065">
        <ele>269.742</ele>
        <time>2011-03-20T13:34:08Z</time>
      </trkpt>
      <trkpt lat="43.36874" lon="2.74075">
        <ele>267.88</ele>
        <time>2011-03-20T13:34:12Z</time>
      </trkpt>
      <trkpt lat="43.36873" lon="2.74081">
        <ele>268.567</ele>
        <time>2011-03-20T13:34:15Z</time>
      </trkpt>
      <trkpt lat="43.36872" lon="2.74096">
        <ele>268.807</ele>
        <time>2011-03-20T13:34:20Z</time>
      </trkpt>
      <trkpt lat="43.36865" lon="2.74111">
        <ele>268.349</ele>
        <time>2011-03-20T13:34:24Z</time>
      </trkpt>
      <trkpt lat="43.36858" lon="2.74116">
        <ele>267.984</ele>
        <time>2011-03-20T13:34:27Z</time>
      </trkpt>
      <trkpt lat="43.36845" lon="2.74125">
        <ele>265.94</ele>
        <time>2011-03-20T13:34:32Z</time>
      </trkpt>
      <trkpt lat="43.36837" lon="2.74134">
        <ele>266.189</ele>
        <time>2011-03-20T13:34:36Z</time>
      </trkpt>
      <trkpt lat="43.36825" lon="2.74141">
        <ele>264.84</ele>
        <time>2011-03-20T13:34:41Z</time>
      </trkpt>
      <trkpt lat="43.36808" lon="2.74161">
        <ele>263.339</ele>
        <time>2011-03-20T13:34:49Z</time>
      </trkpt>
      <trkpt lat="43.36791" lon="2.74165">
        <ele>261.591</ele>
        <time>2011-03-20T13:34:56Z</time>
      </trkpt>
      <trkpt lat="43.36764" lon="2.74188">
        <ele>260.827</ele>
        <time>2011-03-20T13:35:07Z</time>
      </trkpt>
      <trkpt lat="43.36756" lon="2.74185">
        <ele>260.423</ele>
        <time>2011-03-20T13:35:11Z</time>
      </trkpt>
      <trkpt lat="43.36747" lon="2.74183">
        <ele>257.89</ele>
        <time>2011-03-20T13:35:15Z</time>
      </trkpt>
      <trkpt lat="43.36712" lon="2.74197">
        <ele>255.277</ele>
        <time>2011-03-20T13:35:25Z</time>
      </trkpt>
      <trkpt lat="43.36699" lon="2.7421">
        <ele>257.008</ele>
        <time>2011-03-20T13:35:32Z</time>
      </trkpt>
      <trkpt lat="43.36682" lon="2.74209">
        <ele>254.403</ele>
        <time>2011-03-20T13:35:39Z</time>
      </trkpt>
      <trkpt lat="43.36672" lon="2.74211">
        <ele>253.538</ele>
        <time>2011-03-20T13:35:43Z</time>
      </trkpt>
      <trkpt lat="43.36643" lon="2.74216">
        <ele>250.665</ele>
        <time>2011-03-20T13:35:53Z</time>
      </trkpt>
      <trkpt lat="43.3664" lon="2.74216">
        <ele>250.743</ele>
        <time>2011-03-20T13:35:54Z</time>
      </trkpt>
      <trkpt lat="43.36616" lon="2.74222">
        <ele>250.264</ele>
        <time>2011-03-20T13:36:02Z</time>
      </trkpt>
      <trkpt lat="43.36595" lon="2.74225">
        <ele>249.471</ele>
        <time>2011-03-20T13:36:12Z</time>
      </trkpt>
      <trkpt lat="43.3659" lon="2.74227">
        <ele>250.77</ele>
        <time>2011-03-20T13:36:14Z</time>
      </trkpt>
      <trkpt lat="43.36585" lon="2.74226">
        <ele>249.57</ele>
        <time>2011-03-20T13:36:18Z</time>
      </trkpt>
      <trkpt lat="43.3658" lon="2.74227">
        <ele>248.357</ele>
        <time>2011-03-20T13:36:20Z</time>
      </trkpt>
      <trkpt lat="43.36574" lon="2.74227">
        <ele>248.439</ele>
        <time>2011-03-20T13:36:22Z</time>
      </trkpt>
      <trkpt lat="43.3657" lon="2.74223">
        <ele>246.778</ele>
        <time>2011-03-20T13:36:28Z</time>
      </trkpt>
      <trkpt lat="43.36571" lon="2.74221">
        <ele>245.721</ele>
        <time>2011-03-20T13:36:30Z</time>
      </trkpt>
      <trkpt lat="43.36586" lon="2.7421">
        <ele>242.558</ele>
        <time>2011-03-20T13:36:38Z</time>
      </trkpt>
      <trkpt lat="43.3659" lon="2.74206">
        <ele>241.936</ele>
        <time>2011-03-20T13:36:40Z</time>
      </trkpt>
      <trkpt lat="43.36599" lon="2.74202">
        <ele>240.139</ele>
        <time>2011-03-20T13:36:44Z</time>
      </trkpt>
      <trkpt lat="43.36605" lon="2.74195">
        <ele>238.361</ele>
        <time>2011-03-20T13:36:48Z</time>
      </trkpt>
      <trkpt lat="43.3662" lon="2.74189">
        <ele>235.5</ele>
        <time>2011-03-20T13:36:55Z</time>
      </trkpt>
      <trkpt lat="43.3664" lon="2.74179">
        <ele>231.634</ele>
        <time>2011-03-20T13:37:05Z</time>
      </trkpt>
      <trkpt lat="43.36643" lon="2.74176">
        <ele>230.433</ele>
        <time>2011-03-20T13:37:07Z</time>
      </trkpt>
      <trkpt lat="43.36648" lon="2.74171">
        <ele>228.826</ele>
        <time>2011-03-20T13:37:11Z</time>
      </trkpt>
      <trkpt lat="43.36657" lon="2.74169">
        <ele>228.122</ele>
        <time>2011-03-20T13:37:15Z</time>
      </trkpt>
      <trkpt lat="43.36662" lon="2.74167">
        <ele>227.964</ele>
        <time>2011-03-20T13:37:17Z</time>
      </trkpt>
      <trkpt lat="43.36672" lon="2.7416">
        <ele>226.175</ele>
        <time>2011-03-20T13:37:22Z</time>
      </trkpt>
      <trkpt lat="43.36693" lon="2.74141">
        <ele>222.463</ele>
        <time>2011-03-20T13:37:32Z</time>
      </trkpt>
      <trkpt lat="43.36697" lon="2.74137">
        <ele>221.024</ele>
        <time>2011-03-20T13:37:36Z</time>
      </trkpt>
      <trkpt lat="43.36699" lon="2.74134">
        <ele>219.997</ele>
        <time>2011-03-20T13:37:38Z</time>
      </trkpt>
      <trkpt lat="43.36705" lon="2.74129">
        <ele>218.215</ele>
        <time>2011-03-20T13:37:42Z</time>
      </trkpt>
      <trkpt lat="43.3671" lon="2.74126">
        <ele>217.295</ele>
        <time>2011-03-20T13:37:45Z</time>
      </trkpt>
      <trkpt lat="43.36725" lon="2.74109">
        <ele>213.421</ele>
        <time>2011-03-20T13:37:55Z</time>
      </trkpt>
      <trkpt lat="43.36731" lon="2.74102">
        <ele>212.626</ele>
        <time>2011-03-20T13:37:59Z</time>
      </trkpt>
      <trkpt lat="43.36735" lon="2.74096">
        <ele>210.622</ele>
        <time>2011-03-20T13:38:03Z</time>
      </trkpt>
      <trkpt lat="43.36739" lon="2.7409">
        <ele>209.779</ele>
        <time>2011-03-20T13:38:05Z</time>
      </trkpt>
      <trkpt lat="43.36743" lon="2.74084">
        <ele>208.904</ele>
        <time>2011-03-20T13:38:08Z</time>
      </trkpt>
      <trkpt lat="43.36747" lon="2.74084">
        <ele>208.057</ele>
        <time>2011-03-20T13:38:10Z</time>
      </trkpt>
      <trkpt lat="43.36754" lon="2.74075">
        <ele>205.411</ele>
        <time>2011-03-20T13:38:15Z</time>
      </trkpt>
      <trkpt lat="43.36755" lon="2.74073">
        <ele>204.513</ele>
        <time>2011-03-20T13:38:16Z</time>
      </trkpt>
      <trkpt lat="43.36758" lon="2.7407">
        <ele>203.426</ele>
        <time>2011-03-20T13:38:18Z</time>
      </trkpt>
      <trkpt lat="43.36764" lon="2.74059">
        <ele>201.497</ele>
        <time>2011-03-20T13:38:23Z</time>
      </trkpt>
      <trkpt lat="43.36768" lon="2.74051">
        <ele>200.122</ele>
        <time>2011-03-20T13:38:27Z</time>
      </trkpt>
      <trkpt lat="43.3677" lon="2.74049">
        <ele>199.871</ele>
        <time>2011-03-20T13:38:28Z</time>
      </trkpt>
      <trkpt lat="43.36784" lon="2.74028">
        <ele>199.486</ele>
        <time>2011-03-20T13:38:36Z</time>
      </trkpt>
      <trkpt lat="43.36788" lon="2.74026">
        <ele>198.562</ele>
        <time>2011-03-20T13:38:38Z</time>
      </trkpt>
      <trkpt lat="43.36793" lon="2.74013">
        <ele>196.942</ele>
        <time>2011-03-20T13:38:45Z</time>
      </trkpt>
      <trkpt lat="43.368" lon="2.74001">
        <ele>199.769</ele>
        <time>2011-03-20T13:38:52Z</time>
      </trkpt>
      <trkpt lat="43.368" lon="2.74">
        <ele>200.894</ele>
        <time>2011-03-20T13:38:53Z</time>
      </trkpt>
      <trkpt lat="43.36806" lon="2.73993">
        <ele>201.889</ele>
        <time>2011-03-20T13:38:58Z</time>
      </trkpt>
      <trkpt lat="43.36811" lon="2.73977">
        <ele>201.795</ele>
        <time>2011-03-20T13:39:05Z</time>
      </trkpt>
      <trkpt lat="43.36822" lon="2.73958">
        <ele>202.299</ele>
        <time>2011-03-20T13:39:11Z</time>
      </trkpt>
      <trkpt lat="43.36831" lon="2.73928">
        <ele>203.854</ele>
        <time>2011-03-20T13:39:24Z</time>
      </trkpt>
      <trkpt lat="43.36833" lon="2.7392">
        <ele>203.305</ele>
        <time>2011-03-20T13:39:26Z</time>
      </trkpt>
      <trkpt lat="43.36845" lon="2.73911">
        <ele>205.141</ele>
        <time>2011-03-20T13:39:32Z</time>
      </trkpt>
      <trkpt lat="43.36845" lon="2.73909">
        <ele>205.498</ele>
        <time>2011-03-20T13:39:33Z</time>
      </trkpt>
      <trkpt lat="43.36848" lon="2.73905">
        <ele>206.075</ele>
        <time>2011-03-20T13:39:35Z</time>
      </trkpt>
      <trkpt lat="43.36861" lon="2.73907">
        <ele>206.551</ele>
        <time>2011-03-20T13:39:42Z</time>
      </trkpt>
      <trkpt lat="43.36899" lon="2.73944">
        <ele>205.97</ele>
        <time>2011-03-20T13:39:57Z</time>
      </trkpt>
      <trkpt lat="43.36915" lon="2.73951">
        <ele>205.977</ele>
        <time>2011-03-20T13:40:01Z</time>
      </trkpt>
      <trkpt lat="43.36922" lon="2.73955">
        <ele>206.739</ele>
        <time>2011-03-20T13:40:04Z</time>
      </trkpt>
      <trkpt lat="43.36928" lon="2.73957">
        <ele>207.053</ele>
        <time>2011-03-20T13:40:09Z</time>
      </trkpt>
      <trkpt lat="43.36928" lon="2.73952">
        <ele>206.795</ele>
        <time>2011-03-20T13:40:11Z</time>
      </trkpt>
      <trkpt lat="43.36928" lon="2.73936">
        <ele>207.063</ele>
        <time>2011-03-20T13:40:15Z</time>
      </trkpt>
      <trkpt lat="43.3693" lon="2.7393">
        <ele>207.396</ele>
        <time>2011-03-20T13:40:17Z</time>
      </trkpt>
      <trkpt lat="43.3693" lon="2.73922">
        <ele>207.299</ele>
        <time>2011-03-20T13:40:28Z</time>
      </trkpt>
      <trkpt lat="43.36918" lon="2.73913">
        <ele>206.586</ele>
        <time>2011-03-20T13:40:42Z</time>
      </trkpt>
      <trkpt lat="43.36915" lon="2.73912">
        <ele>205.203</ele>
        <time>2011-03-20T13:40:45Z</time>
      </trkpt>
      <trkpt lat="43.36914" lon="2.73911">
        <ele>204.784</ele>
        <time>2011-03-20T13:40:46Z</time>
      </trkpt>
      <trkpt lat="43.36895" lon="2.73901">
        <ele>200.517</ele>
        <time>2011-03-20T13:40:57Z</time>
      </trkpt>
      <trkpt lat="43.36891" lon="2.739">
        <ele>198.364</ele>
        <time>2011-03-20T13:41:02Z</time>
      </trkpt>
      <trkpt lat="43.36887" lon="2.739">
        <ele>196.471</ele>
        <time>2011-03-20T13:41:06Z</time>
      </trkpt>
      <trkpt lat="43.36867" lon="2.73896">
        <ele>195.686</ele>
        <time>2011-03-20T13:41:16Z</time>
      </trkpt>
      <trkpt lat="43.36866" lon="2.73894">
        <ele>195.187</ele>
        <time>2011-03-20T13:41:18Z</time>
      </trkpt>
      <trkpt lat="43.36861" lon="2.73891">
        <ele>194.867</ele>
        <time>2011-03-20T13:41:21Z</time>
      </trkpt>
      <trkpt lat="43.36854" lon="2.73892">
        <ele>194.139</ele>
        <time>2011-03-20T13:41:25Z</time>
      </trkpt>
      <trkpt lat="43.36845" lon="2.73892">
        <ele>192.809</ele>
        <time>2011-03-20T13:41:29Z</time>
      </trkpt>
      <trkpt lat="43.36836" lon="2.73897">
        <ele>192.251</ele>
        <time>2011-03-20T13:41:32Z</time>
      </trkpt>
      <trkpt lat="43.36815" lon="2.73916">
        <ele>192.391</ele>
        <time>2011-03-20T13:41:40Z</time>
      </trkpt>
      <trkpt lat="43.36809" lon="2.73923">
        <ele>192.455</ele>
        <time>2011-03-20T13:41:43Z</time>
      </trkpt>
      <trkpt lat="43.36805" lon="2.73925">
        <ele>191.92</ele>
        <time>2011-03-20T13:41:45Z</time>
      </trkpt>
      <trkpt lat="43.36799" lon="2.73936">
        <ele>191.902</ele>
        <time>2011-03-20T13:41:51Z</time>
      </trkpt>
      <trkpt lat="43.36793" lon="2.73942">
        <ele>190.985</ele>
        <time>2011-03-20T13:41:56Z</time>
      </trkpt>
      <trkpt lat="43.36792" lon="2.73949">
        <ele>190.848</ele>
        <time>2011-03-20T13:41:59Z</time>
      </trkpt>
      <trkpt lat="43.36784" lon="2.73973">
        <ele>191.407</ele>
        <time>2011-03-20T13:42:08Z</time>
      </trkpt>
      <trkpt lat="43.36781" lon="2.73977">
        <ele>192.708</ele>
        <time>2011-03-20T13:42:13Z</time>
      </trkpt>
      <trkpt lat="43.36772" lon="2.73997">
        <ele>190.828</ele>
        <time>2011-03-20T13:42:21Z</time>
      </trkpt>
      <trkpt lat="43.36747" lon="2.74027">
        <ele>190.636</ele>
        <time>2011-03-20T13:42:32Z</time>
      </trkpt>
      <trkpt lat="43.36733" lon="2.7404">
        <ele>190.275</ele>
        <time>2011-03-20T13:42:39Z</time>
      </trkpt>
      <trkpt lat="43.36726" lon="2.74048">
        <ele>190.437</ele>
        <time>2011-03-20T13:42:44Z</time>
      </trkpt>
      <trkpt lat="43.36714" lon="2.74054">
        <ele>190.399</ele>
        <time>2011-03-20T13:42:48Z</time>
      </trkpt>
      <trkpt lat="43.36705" lon="2.74058">
        <ele>190.553</ele>
        <time>2011-03-20T13:42:52Z</time>
      </trkpt>
      <trkpt lat="43.36698" lon="2.74063">
        <ele>190.617</ele>
        <time>2011-03-20T13:42:54Z</time>
      </trkpt>
      <trkpt lat="43.36687" lon="2.74066">
        <ele>190.463</ele>
        <time>2011-03-20T13:42:58Z</time>
      </trkpt>
      <trkpt lat="43.36665" lon="2.7407">
        <ele>191.25</ele>
        <time>2011-03-20T13:43:06Z</time>
      </trkpt>
      <trkpt lat="43.36655" lon="2.74071">
        <ele>192.159</ele>
        <time>2011-03-20T13:43:11Z</time>
      </trkpt>
      <trkpt lat="43.36635" lon="2.74072">
        <ele>192.779</ele>
        <time>2011-03-20T13:43:19Z</time>
      </trkpt>
      <trkpt lat="43.36604" lon="2.74081">
        <ele>193.816</ele>
        <time>2011-03-20T13:43:30Z</time>
      </trkpt>
      <trkpt lat="43.36602" lon="2.7408">
        <ele>193.87</ele>
        <time>2011-03-20T13:43:31Z</time>
      </trkpt>
      <trkpt lat="43.36594" lon="2.74081">
        <ele>194.273</ele>
        <time>2011-03-20T13:43:35Z</time>
      </trkpt>
      <trkpt lat="43.36583" lon="2.7408">
        <ele>195.157</ele>
        <time>2011-03-20T13:43:39Z</time>
      </trkpt>
      <trkpt lat="43.36557" lon="2.74066">
        <ele>196.125</ele>
        <time>2011-03-20T13:43:50Z</time>
      </trkpt>
      <trkpt lat="43.36554" lon="2.7406">
        <ele>196.231</ele>
        <time>2011-03-20T13:43:52Z</time>
      </trkpt>
      <trkpt lat="43.36552" lon="2.74057">
        <ele>196.521</ele>
        <time>2011-03-20T13:43:54Z</time>
      </trkpt>
      <trkpt lat="43.36544" lon="2.74031">
        <ele>197.04</ele>
        <time>2011-03-20T13:44:02Z</time>
      </trkpt>
      <trkpt lat="43.36538" lon="2.74009">
        <ele>198.369</ele>
        <time>2011-03-20T13:44:10Z</time>
      </trkpt>
      <trkpt lat="43.36537" lon="2.74004">
        <ele>198.785</ele>
        <time>2011-03-20T13:44:12Z</time>
      </trkpt>
      <trkpt lat="43.36518" lon="2.73981">
        <ele>199.623</ele>
        <time>2011-03-20T13:44:22Z</time>
      </trkpt>
      <trkpt lat="43.3651" lon="2.73979">
        <ele>199.814</ele>
        <time>2011-03-20T13:44:25Z</time>
      </trkpt>
      <trkpt lat="43.36502" lon="2.7398">
        <ele>199.868</ele>
        <time>2011-03-20T13:44:37Z</time>
      </trkpt>
      <trkpt lat="43.36496" lon="2.73979">
        <ele>199.69</ele>
        <time>2011-03-20T13:44:44Z</time>
      </trkpt>
      <trkpt lat="43.36488" lon="2.73971">
        <ele>199.885</ele>
        <time>2011-03-20T13:44:48Z</time>
      </trkpt>
      <trkpt lat="43.36477" lon="2.73923">
        <ele>200.67</ele>
        <time>2011-03-20T13:45:01Z</time>
      </trkpt>
      <trkpt lat="43.36461" lon="2.73896">
        <ele>200.09</ele>
        <time>2011-03-20T13:45:10Z</time>
      </trkpt>
      <trkpt lat="43.36448" lon="2.73869">
        <ele>200.508</ele>
        <time>2011-03-20T13:45:20Z</time>
      </trkpt>
      <trkpt lat="43.36448" lon="2.7387">
        <ele>200.622</ele>
        <time>2011-03-20T13:45:41Z</time>
      </trkpt>
      <trkpt lat="43.36451" lon="2.73864">
        <ele>201.024</ele>
        <time>2011-03-20T13:45:49Z</time>
      </trkpt>
      <trkpt lat="43.3645" lon="2.73859">
        <ele>200.614</ele>
        <time>2011-03-20T13:45:51Z</time>
      </trkpt>
      <trkpt lat="43.36447" lon="2.73856">
        <ele>200.611</ele>
        <time>2011-03-20T13:45:54Z</time>
      </trkpt>
      <trkpt lat="43.36443" lon="2.73854">
        <ele>201.488</ele>
        <time>2011-03-20T13:45:59Z</time>
      </trkpt>
      <trkpt lat="43.36436" lon="2.73845">
        <ele>205.489</ele>
        <time>2011-03-20T13:46:08Z</time>
      </trkpt>
      <trkpt lat="43.36435" lon="2.73845">
        <ele>205.709</ele>
        <time>2011-03-20T13:46:09Z</time>
      </trkpt>
      <trkpt lat="43.36432" lon="2.73842">
        <ele>208.12</ele>
        <time>2011-03-20T13:46:14Z</time>
      </trkpt>
      <trkpt lat="43.36428" lon="2.7384">
        <ele>210.073</ele>
        <time>2011-03-20T13:46:18Z</time>
      </trkpt>
      <trkpt lat="43.36427" lon="2.73839">
        <ele>210.914</ele>
        <time>2011-03-20T13:46:20Z</time>
      </trkpt>
      <trkpt lat="43.36421" lon="2.73833">
        <ele>214.564</ele>
        <time>2011-03-20T13:46:29Z</time>
      </trkpt>
      <trkpt lat="43.3642" lon="2.73834">
        <ele>215.58</ele>
        <time>2011-03-20T13:46:31Z</time>
      </trkpt>
      <trkpt lat="43.36418" lon="2.73841">
        <ele>216.861</ele>
        <time>2011-03-20T13:46:37Z</time>
      </trkpt>
      <trkpt lat="43.36413" lon="2.73865">
        <ele>220.289</ele>
        <time>2011-03-20T13:46:48Z</time>
      </trkpt>
      <trkpt lat="43.36413" lon="2.73873">
        <ele>222.044</ele>
        <time>2011-03-20T13:46:52Z</time>
      </trkpt>
      <trkpt lat="43.3641" lon="2.73873">
        <ele>224.576</ele>
        <time>2011-03-20T13:47:01Z</time>
      </trkpt>
      <trkpt lat="43.36406" lon="2.73894">
        <ele>227.226</ele>
        <time>2011-03-20T13:47:19Z</time>
      </trkpt>
      <trkpt lat="43.364" lon="2.73905">
        <ele>228.735</ele>
        <time>2011-03-20T13:47:30Z</time>
      </trkpt>
      <trkpt lat="43.364" lon="2.73918">
        <ele>231.518</ele>
        <time>2011-03-20T13:47:39Z</time>
      </trkpt>
      <trkpt lat="43.36399" lon="2.73923">
        <ele>231.799</ele>
        <time>2011-03-20T13:47:41Z</time>
      </trkpt>
      <trkpt lat="43.36398" lon="2.73931">
        <ele>232.438</ele>
        <time>2011-03-20T13:47:45Z</time>
      </trkpt>
      <trkpt lat="43.36394" lon="2.73933">
        <ele>234.062</ele>
        <time>2011-03-20T13:47:49Z</time>
      </trkpt>
      <trkpt lat="43.36387" lon="2.73939">
        <ele>235.789</ele>
        <time>2011-03-20T13:47:53Z</time>
      </trkpt>
      <trkpt lat="43.36384" lon="2.73953">
        <ele>238.325</ele>
        <time>2011-03-20T13:47:59Z</time>
      </trkpt>
      <trkpt lat="43.36384" lon="2.73955">
        <ele>238.76</ele>
        <time>2011-03-20T13:48:00Z</time>
      </trkpt>
      <trkpt lat="43.36382" lon="2.73969">
        <ele>240.546</ele>
        <time>2011-03-20T13:48:10Z</time>
      </trkpt>
      <trkpt lat="43.36381" lon="2.73973">
        <ele>240.699</ele>
        <time>2011-03-20T13:48:11Z</time>
      </trkpt>
      <trkpt lat="43.36378" lon="2.73983">
        <ele>242.033</ele>
        <time>2011-03-20T13:48:15Z</time>
      </trkpt>
      <trkpt lat="43.36375" lon="2.73993">
        <ele>242.714</ele>
        <time>2011-03-20T13:48:19Z</time>
      </trkpt>
      <trkpt lat="43.3637" lon="2.74009">
        <ele>244.365</ele>
        <time>2011-03-20T13:48:29Z</time>
      </trkpt>
      <trkpt lat="43.36365" lon="2.74011">
        <ele>246.369</ele>
        <time>2011-03-20T13:48:34Z</time>
      </trkpt>
      <trkpt lat="43.36356" lon="2.74024">
        <ele>247.753</ele>
        <time>2011-03-20T13:48:42Z</time>
      </trkpt>
      <trkpt lat="43.36353" lon="2.74025">
        <ele>248.216</ele>
        <time>2011-03-20T13:48:44Z</time>
      </trkpt>
      <trkpt lat="43.36348" lon="2.7403">
        <ele>249.375</ele>
        <time>2011-03-20T13:48:49Z</time>
      </trkpt>
      <trkpt lat="43.36339" lon="2.74032">
        <ele>250.951</ele>
        <time>2011-03-20T13:48:57Z</time>
      </trkpt>
      <trkpt lat="43.36337" lon="2.74034">
        <ele>251.305</ele>
        <time>2011-03-20T13:48:59Z</time>
      </trkpt>
      <trkpt lat="43.3633" lon="2.74034">
        <ele>252.77</ele>
        <time>2011-03-20T13:49:04Z</time>
      </trkpt>
      <trkpt lat="43.36322" lon="2.74034">
        <ele>252.997</ele>
        <time>2011-03-20T13:49:10Z</time>
      </trkpt>
      <trkpt lat="43.36319" lon="2.74032">
        <ele>253.296</ele>
        <time>2011-03-20T13:49:12Z</time>
      </trkpt>
      <trkpt lat="43.36297" lon="2.74029">
        <ele>255.845</ele>
        <time>2011-03-20T13:49:29Z</time>
      </trkpt>
      <trkpt lat="43.36293" lon="2.74028">
        <ele>256.453</ele>
        <time>2011-03-20T13:49:32Z</time>
      </trkpt>
      <trkpt lat="43.36282" lon="2.74031">
        <ele>257.787</ele>
        <time>2011-03-20T13:49:43Z</time>
      </trkpt>
      <trkpt lat="43.36274" lon="2.74035">
        <ele>259.812</ele>
        <time>2011-03-20T13:49:47Z</time>
      </trkpt>
      <trkpt lat="43.3626" lon="2.74036">
        <ele>260.391</ele>
        <time>2011-03-20T13:49:54Z</time>
      </trkpt>
      <trkpt lat="43.36228" lon="2.74053">
        <ele>256.57</ele>
        <time>2011-03-20T13:50:07Z</time>
      </trkpt>
      <trkpt lat="43.36224" lon="2.74055">
        <ele>255.152</ele>
        <time>2011-03-20T13:50:10Z</time>
      </trkpt>
      <trkpt lat="43.36214" lon="2.74058">
        <ele>253.304</ele>
        <time>2011-03-20T13:50:14Z</time>
      </trkpt>
      <trkpt lat="43.36193" lon="2.74064">
        <ele>249.853</ele>
        <time>2011-03-20T13:50:22Z</time>
      </trkpt>
      <trkpt lat="43.36187" lon="2.74065">
        <ele>248.919</ele>
        <time>2011-03-20T13:50:24Z</time>
      </trkpt>
      <trkpt lat="43.36171" lon="2.7407">
        <ele>246.761</ele>
        <time>2011-03-20T13:50:28Z</time>
      </trkpt>
      <trkpt lat="43.36164" lon="2.74072">
        <ele>245.816</ele>
        <time>2011-03-20T13:50:30Z</time>
      </trkpt>
      <trkpt lat="43.36152" lon="2.74075">
        <ele>244.238</ele>
        <time>2011-03-20T13:50:33Z</time>
      </trkpt>
      <trkpt lat="43.36128" lon="2.74091">
        <ele>242.169</ele>
        <time>2011-03-20T13:50:42Z</time>
      </trkpt>
      <trkpt lat="43.36122" lon="2.74112">
        <ele>241.691</ele>
        <time>2011-03-20T13:50:46Z</time>
      </trkpt>
      <trkpt lat="43.36101" lon="2.74126">
        <ele>240.926</ele>
        <time>2011-03-20T13:50:54Z</time>
      </trkpt>
      <trkpt lat="43.36081" lon="2.74117">
        <ele>243.435</ele>
        <time>2011-03-20T13:51:04Z</time>
      </trkpt>
      <trkpt lat="43.36057" lon="2.74105">
        <ele>246.661</ele>
        <time>2011-03-20T13:51:13Z</time>
      </trkpt>
      <trkpt lat="43.36054" lon="2.74104">
        <ele>247.199</ele>
        <time>2011-03-20T13:51:14Z</time>
      </trkpt>
      <trkpt lat="43.3604" lon="2.74094">
        <ele>248.679</ele>
        <time>2011-03-20T13:51:20Z</time>
      </trkpt>
      <trkpt lat="43.36031" lon="2.74098">
        <ele>248.095</ele>
        <time>2011-03-20T13:51:24Z</time>
      </trkpt>
      <trkpt lat="43.3602" lon="2.74103">
        <ele>250.601</ele>
        <time>2011-03-20T13:51:30Z</time>
      </trkpt>
      <trkpt lat="43.36017" lon="2.74103">
        <ele>250.682</ele>
        <time>2011-03-20T13:51:33Z</time>
      </trkpt>
      <trkpt lat="43.35998" lon="2.74129">
        <ele>249.432</ele>
        <time>2011-03-20T13:51:46Z</time>
      </trkpt>
      <trkpt lat="43.35982" lon="2.74112">
        <ele>247.082</ele>
        <time>2011-03-20T13:51:56Z</time>
      </trkpt>
      <trkpt lat="43.3596" lon="2.74116">
        <ele>244.733</ele>
        <time>2011-03-20T13:52:05Z</time>
      </trkpt>
      <trkpt lat="43.35942" lon="2.74116">
        <ele>243.048</ele>
        <time>2011-03-20T13:52:11Z</time>
      </trkpt>
      <trkpt lat="43.35936" lon="2.74102">
        <ele>241.76</ele>
        <time>2011-03-20T13:52:18Z</time>
      </trkpt>
      <trkpt lat="43.3592" lon="2.7411">
        <ele>238.852</ele>
        <time>2011-03-20T13:52:22Z</time>
      </trkpt>
      <trkpt lat="43.3591" lon="2.74109">
        <ele>237.816</ele>
        <time>2011-03-20T13:52:28Z</time>
      </trkpt>
      <trkpt lat="43.35908" lon="2.7411">
        <ele>237.749</ele>
        <time>2011-03-20T13:52:29Z</time>
      </trkpt>
      <trkpt lat="43.35906" lon="2.7411">
        <ele>236.7</ele>
        <time>2011-03-20T13:52:30Z</time>
      </trkpt>
      <trkpt lat="43.35873" lon="2.74148">
        <ele>233.411</ele>
        <time>2011-03-20T13:52:40Z</time>
      </trkpt>
      <trkpt lat="43.35869" lon="2.74162">
        <ele>229.785</ele>
        <time>2011-03-20T13:52:50Z</time>
      </trkpt>
      <trkpt lat="43.35865" lon="2.74174">
        <ele>228.429</ele>
        <time>2011-03-20T13:52:58Z</time>
      </trkpt>
      <trkpt lat="43.35867" lon="2.74184">
        <ele>228.274</ele>
        <time>2011-03-20T13:53:02Z</time>
      </trkpt>
      <trkpt lat="43.3586" lon="2.74192">
        <ele>227.892</ele>
        <time>2011-03-20T13:53:06Z</time>
      </trkpt>
      <trkpt lat="43.35846" lon="2.74229">
        <ele>226.517</ele>
        <time>2011-03-20T13:53:17Z</time>
      </trkpt>
      <trkpt lat="43.35843" lon="2.74231">
        <ele>226.522</ele>
        <time>2011-03-20T13:53:18Z</time>
      </trkpt>
      <trkpt lat="43.35837" lon="2.74234">
        <ele>225.84</ele>
        <time>2011-03-20T13:53:30Z</time>
      </trkpt>
      <trkpt lat="43.35833" lon="2.7423">
        <ele>223.4</ele>
        <time>2011-03-20T13:53:39Z</time>
      </trkpt>
      <trkpt lat="43.35796" lon="2.74263">
        <ele>220.047</ele>
        <time>2011-03-20T13:53:49Z</time>
      </trkpt>
      <trkpt lat="43.35777" lon="2.74275">
        <ele>218.907</ele>
        <time>2011-03-20T13:53:56Z</time>
      </trkpt>
      <trkpt lat="43.35774" lon="2.74274">
        <ele>218.145</ele>
        <time>2011-03-20T13:53:58Z</time>
      </trkpt>
      <trkpt lat="43.35768" lon="2.74277">
        <ele>217.793</ele>
        <time>2011-03-20T13:54:04Z</time>
      </trkpt>
      <trkpt lat="43.35762" lon="2.74277">
        <ele>217.813</ele>
        <time>2011-03-20T13:54:08Z</time>
      </trkpt>
      <trkpt lat="43.35747" lon="2.74259">
        <ele>219.924</ele>
        <time>2011-03-20T13:54:26Z</time>
      </trkpt>
      <trkpt lat="43.35741" lon="2.74257">
        <ele>221.152</ele>
        <time>2011-03-20T13:54:29Z</time>
      </trkpt>
      <trkpt lat="43.35737" lon="2.74256">
        <ele>222.871</ele>
        <time>2011-03-20T13:54:35Z</time>
      </trkpt>
      <trkpt lat="43.35736" lon="2.74262">
        <ele>223.36</ele>
        <time>2011-03-20T13:54:39Z</time>
      </trkpt>
      <trkpt lat="43.35727" lon="2.74275">
        <ele>223.259</ele>
        <time>2011-03-20T13:54:43Z</time>
      </trkpt>
      <trkpt lat="43.35724" lon="2.74284">
        <ele>222.683</ele>
        <time>2011-03-20T13:54:46Z</time>
      </trkpt>
      <trkpt lat="43.35725" lon="2.74292">
        <ele>221.952</ele>
        <time>2011-03-20T13:54:50Z</time>
      </trkpt>
      <trkpt lat="43.3571" lon="2.74321">
        <ele>220.262</ele>
        <time>2011-03-20T13:55:00Z</time>
      </trkpt>
      <trkpt lat="43.3569" lon="2.74342">
        <ele>217.592</ele>
        <time>2011-03-20T13:55:08Z</time>
      </trkpt>
      <trkpt lat="43.35686" lon="2.74351">
        <ele>216.956</ele>
        <time>2011-03-20T13:55:12Z</time>
      </trkpt>
      <trkpt lat="43.35683" lon="2.74357">
        <ele>215.557</ele>
        <time>2011-03-20T13:55:16Z</time>
      </trkpt>
      <trkpt lat="43.35673" lon="2.7437">
        <ele>213.981</ele>
        <time>2011-03-20T13:55:22Z</time>
      </trkpt>
      <trkpt lat="43.35655" lon="2.74394">
        <ele>210.707</ele>
        <time>2011-03-20T13:55:34Z</time>
      </trkpt>
      <trkpt lat="43.35628" lon="2.74408">
        <ele>211.769</ele>
        <time>2011-03-20T13:55:46Z</time>
      </trkpt>
      <trkpt lat="43.35607" lon="2.74419">
        <ele>214.186</ele>
        <time>2011-03-20T13:55:54Z</time>
      </trkpt>
      <trkpt lat="43.35598" lon="2.74396">
        <ele>214.708</ele>
        <time>2011-03-20T13:56:03Z</time>
      </trkpt>
      <trkpt lat="43.35588" lon="2.7435">
        <ele>215.548</ele>
        <time>2011-03-20T13:56:17Z</time>
      </trkpt>
      <trkpt lat="43.35577" lon="2.74302">
        <ele>215.728</ele>
        <time>2011-03-20T13:56:30Z</time>
      </trkpt>
      <trkpt lat="43.35572" lon="2.74282">
        <ele>215.508</ele>
        <time>2011-03-20T13:56:37Z</time>
      </trkpt>
      <trkpt lat="43.35565" lon="2.74255">
        <ele>216.167</ele>
        <time>2011-03-20T13:56:47Z</time>
      </trkpt>
    </trkseg>
  </trk>
</gpx>